RU312 / VQ-BVR 7700 Squawk Report (17th of April, 2019)

Aircraft B748 Reg No. VQ-BVR Age 4 years old
Model 747 Jet engines 4 First flight 26-09-14
Registered 10-14 Rollout N/A Delivered 16-10-14
Construction No. 60687 Line No. 1505 Series 867F
ADSHEX 4243D0 Airline name AirBridge Cargo Owner N/A
Airfield based Moscow-Sheremetyevo~Moscow~RA First tracked 2017-07-13 19:22:00

Flight history for VQ-BVR

Time Lat Lon Altitude Heading Speed Vertical Rate
2019-04-17 22:40:23 GMT 55.960587 37.342957 675 74 157 -832
2019-04-17 22:40:06 GMT 55.957325 37.320812 950 75 159 -1024
We lost coverage of the aircraft here for a total of 93 minutes
2019-04-17 21:06:54 GMT 55.981720 37.428211 0 73 0 0
2019-04-17 21:06:46 GMT 55.981728 37.428192 0 73 0 0
2019-04-17 21:06:36 GMT 55.981720 37.428211 0 73 0 0
2019-04-17 21:06:23 GMT 55.981674 37.428230 0 73 2 0
2019-04-17 21:06:12 GMT 55.981544 37.428295 0 73 5 0
2019-04-17 21:05:59 GMT 55.981258 37.428402 0 73 6 0
2019-04-17 21:05:41 GMT 55.980858 37.428383 0 73 6 0
2019-04-17 21:05:25 GMT 55.980682 37.427757 0 73 5 0
2019-04-17 21:05:17 GMT 55.980640 37.427505 0 73 3 0
2019-04-17 21:05:01 GMT 55.980602 37.427307 0 73 3 0
2019-04-17 21:04:50 GMT 55.980556 37.427116 0 73 3 0
2019-04-17 21:04:38 GMT 55.980446 37.426861 0 73 4 0
2019-04-17 21:04:07 GMT 55.980068 37.426632 0 73 4 0
2019-04-17 21:03:57 GMT 55.979927 37.426685 0 73 4 0
2019-04-17 21:00:41 GMT 55.975010 37.429005 1,200 343 14 0
2019-04-17 21:00:24 GMT 55.974060 37.429420 0 354 13 0
2019-04-17 21:00:10 GMT 55.973488 37.428776 0 70 12 0
2019-04-17 20:59:52 GMT 55.972862 37.424820 0 75 41 0
2019-04-17 20:59:42 GMT 55.972351 37.421299 1,550 75 52 0
2019-04-17 20:59:29 GMT 55.971210 37.413628 1,550 75 94 0
2019-04-17 20:59:19 GMT 55.970127 37.406387 125 74 122 0
2019-04-17 20:59:12 GMT 55.968731 37.397118 125 75 150 0
2019-04-17 20:58:55 GMT 55.965752 37.377033 300 75 156 -1024
2019-04-17 20:58:44 GMT 55.963760 37.364002 475 75 156 -448
2019-04-17 20:58:35 GMT 55.961884 37.351185 575 74 157 -832
2019-04-17 20:58:23 GMT 55.959793 37.337978 750 74 158 -896
2019-04-17 20:58:18 GMT 55.958862 37.331627 950 75 159 -1024
2019-04-17 20:58:13 GMT 55.957947 37.325466 900 75 159 -960
2019-04-17 20:58:09 GMT 55.957188 37.319698 1,075 75 158 -704
2019-04-17 20:58:03 GMT 55.956070 37.312057 1,050 75 159 -576
2019-04-17 20:57:59 GMT 55.955292 37.306492 1,100 75 159 -576
2019-04-17 20:57:54 GMT 55.954285 37.299500 1,150 75 158 -704
2019-04-17 20:57:48 GMT 55.953369 37.293262 1,275 74 156 -832
2019-04-17 20:57:42 GMT 55.952316 37.286266 1,300 74 158 -1408
2019-04-17 20:57:37 GMT 55.951321 37.279785 1,375 74 157 -1024
2019-04-17 20:57:32 GMT 55.950348 37.273197 1,500 74 159 -1344
2019-04-17 20:57:27 GMT 55.949478 37.267540 1,600 74 159 -1216
2019-04-17 20:57:17 GMT 55.947411 37.254124 1,775 74 168 -960
2019-04-17 20:57:12 GMT 55.946201 37.246311 1,875 74 167 -512
2019-04-17 20:57:07 GMT 55.945267 37.240322 1,900 74 172 -192
2019-04-17 20:57:00 GMT 55.943848 37.231335 1,925 73 181 -384
2019-04-17 20:56:56 GMT 55.942940 37.225716 1,975 74 185 -960
2019-04-17 20:56:52 GMT 55.941833 37.218681 2,050 74 185 -1152
2019-04-17 20:56:46 GMT 55.940414 37.209530 2,175 74 183 -1216
2019-04-17 20:56:43 GMT 55.939869 37.206230 2,200 74 183 -1024
2019-04-17 20:56:39 GMT 55.938148 37.194901 2,325 74 182 -640
2019-04-17 20:56:34 GMT 55.937851 37.192883 2,350 74 182 -768
2019-04-17 20:56:31 GMT 55.937122 37.188206 2,375 74 183 -448
2019-04-17 20:56:23 GMT 55.934517 37.170956 2,450 76 186 -576
2019-04-17 20:56:20 GMT 55.934517 37.170956 2,475 74 185 -768
2019-04-17 20:56:15 GMT 55.933594 37.164749 2,550 76 185 -640
2019-04-17 20:56:11 GMT 55.932724 37.158260 2,575 76 185 -512
2019-04-17 20:56:03 GMT 55.930573 37.142277 2,700 75 189 -384
2019-04-17 20:55:59 GMT 55.929394 37.134132 2,700 75 189 -384
2019-04-17 20:55:55 GMT 55.929394 37.134132 2,850 74 189 -640
2019-04-17 20:55:48 GMT 55.927673 37.122631 2,800 75 189 -512
2019-04-17 20:55:43 GMT 55.925484 37.107613 2,900 75 187 -832
2019-04-17 20:55:34 GMT 55.924759 37.102913 2,950 75 185 -704
2019-04-17 20:55:30 GMT 55.923843 37.096668 3,075 74 189 -704
2019-04-17 20:55:24 GMT 55.922470 37.087513 3,075 74 187 -704
2019-04-17 20:55:19 GMT 55.921463 37.081272 3,125 74 189 -640
2019-04-17 20:55:13 GMT 55.920135 37.072449 3,175 75 191 -704
2019-04-17 20:55:09 GMT 55.919083 37.064625 3,225 77 195 -576
2019-04-17 20:55:03 GMT 55.918037 37.056286 3,275 78 198 -640
2019-04-17 20:54:57 GMT 55.917107 37.047787 3,350 78 201 -832
2019-04-17 20:54:53 GMT 55.916176 37.039120 3,425 79 205 -832
2019-04-17 20:54:47 GMT 55.915382 37.031219 3,500 80 207 -896
2019-04-17 20:54:42 GMT 55.914543 37.022297 3,575 80 210 -832
2019-04-17 20:54:39 GMT 55.914078 37.016972 3,750 81 212 -832
2019-04-17 20:54:36 GMT 55.913635 37.012108 3,650 81 213 -832
2019-04-17 20:54:31 GMT 55.912903 37.003952 3,725 80 216 -640
2019-04-17 20:54:26 GMT 55.912125 36.995087 3,775 80 220 -832
2019-04-17 20:54:22 GMT 55.911240 36.985558 3,850 80 223 -768
2019-04-17 20:54:16 GMT 55.910385 36.975986 4,100 79 247 -832
2019-04-17 20:54:05 GMT 55.908600 36.956760 4,050 80 234 -576
2019-04-17 20:53:54 GMT 55.906631 36.935520 4,300 79 247 -832
2019-04-17 20:53:51 GMT 55.905746 36.926422 4,250 79 244 -1600
2019-04-17 20:53:44 GMT 55.904629 36.915352 4,400 79 244 -1280
2019-04-17 20:53:40 GMT 55.903656 36.905407 4,500 79 247 -832
2019-04-17 20:53:34 GMT 55.902534 36.894581 4,650 79 250 -768
2019-04-17 20:53:28 GMT 55.901367 36.883434 4,650 79 252 -640
2019-04-17 20:53:24 GMT 55.900486 36.875011 4,675 79 256 -768
2019-04-17 20:53:21 GMT 55.899509 36.865566 4,700 79 255 -704
2019-04-17 20:53:18 GMT 55.899261 36.862877 4,750 79 255 -832
2019-04-17 20:53:14 GMT 55.898392 36.854324 4,800 79 258 -576
2019-04-17 20:53:11 GMT 55.897522 36.845730 4,850 79 261 -256
2019-04-17 20:53:06 GMT 55.896530 36.836212 4,875 79 264 -320
2019-04-17 20:53:03 GMT 55.895737 36.828148 4,900 79 266 -384
2019-04-17 20:52:55 GMT 55.894226 36.813438 4,950 79 269 -640
2019-04-17 20:52:49 GMT 55.892853 36.799995 5,025 79 273 -704
2019-04-17 20:52:42 GMT 55.891205 36.783558 5,125 79 276 -832
2019-04-17 20:52:39 GMT 55.890518 36.777149 5,150 79 277 -1408
2019-04-17 20:52:28 GMT 55.887817 36.750599 5,450 79 278 -320
2019-04-17 20:52:20 GMT 55.886288 36.735363 5,600 80 277 -1408
2019-04-17 20:52:17 GMT 55.885529 36.727795 5,675 80 277 -1280
2019-04-17 20:52:10 GMT 55.883961 36.711845 5,825 79 277 -1088
2019-04-17 20:52:06 GMT 55.883011 36.702160 5,925 79 278 -320
2019-04-17 20:51:59 GMT 55.881493 36.687553 5,950 79 278 -64
2019-04-17 20:51:56 GMT 55.880768 36.680771 5,950 79 278 0
2019-04-17 20:51:49 GMT 55.879120 36.664982 5,950 79 278 0
2019-04-17 20:51:46 GMT 55.878422 36.658031 5,950 79 277 64
2019-04-17 20:51:39 GMT 55.876606 36.641033 5,950 79 277 -192
2019-04-17 20:51:35 GMT 55.875908 36.634514 5,975 79 277 -192
2019-04-17 20:51:28 GMT 55.874229 36.618893 5,975 79 283 -128
2019-04-17 20:51:25 GMT 55.873444 36.611523 6,000 79 285 -320
2019-04-17 20:51:19 GMT 55.871384 36.591965 6,025 78 330 128
2019-04-17 20:51:15 GMT 55.870831 36.586704 6,025 79 296 128
2019-04-17 20:51:04 GMT 55.868225 36.562248 6,025 79 306 -64
2019-04-17 20:50:56 GMT 55.865250 36.534367 6,025 79 314 -64
2019-04-17 20:50:43 GMT 55.862221 36.507053 6,025 78 327 64
2019-04-17 20:50:33 GMT 55.859299 36.480934 6,000 78 339 64
2019-04-17 20:50:22 GMT 55.855984 36.450577 6,000 79 344 128
2019-04-17 20:50:15 GMT 55.853760 36.429996 6,025 78 345 -704
2019-04-17 20:50:11 GMT 55.852535 36.418648 6,075 79 344 -448
2019-04-17 20:50:06 GMT 55.850876 36.403366 6,125 79 344 -384
2019-04-17 20:49:59 GMT 55.848038 36.376148 6,150 79 343 -384
2019-04-17 20:49:52 GMT 55.846298 36.359856 6,300 79 342 -768
2019-04-17 20:49:46 GMT 55.844997 36.347668 6,350 79 341 -768
2019-04-17 20:49:39 GMT 55.843185 36.330956 6,425 79 341 -640
2019-04-17 20:49:34 GMT 55.840668 36.307240 6,525 79 342 -1024
2019-04-17 20:49:27 GMT 55.839733 36.298740 6,575 79 342 -1216
2019-04-17 20:49:24 GMT 55.838711 36.289043 6,675 79 344 -1088
2019-04-17 20:49:21 GMT 55.837872 36.280975 6,750 79 344 -640
2019-04-17 20:49:17 GMT 55.836456 36.267700 6,775 79 344 -576
2019-04-17 20:49:10 GMT 55.834755 36.251881 6,825 78 345 -576
2019-04-17 20:49:06 GMT 55.833359 36.239002 6,875 79 346 -576
2019-04-17 20:49:03 GMT 55.832241 36.228962 6,900 79 346 -512
2019-04-17 20:49:00 GMT 55.831730 36.223984 6,925 79 347 -576
2019-04-17 20:48:55 GMT 55.830051 36.208534 6,975 79 348 -576
2019-04-17 20:48:50 GMT 55.828655 36.195316 7,000 79 349 -448
2019-04-17 20:48:47 GMT 55.827679 36.186047 7,025 79 350 -320
2019-04-17 20:48:44 GMT 55.826889 36.178642 7,050 79 350 -384
2019-04-17 20:48:40 GMT 55.825584 36.165874 7,075 79 352 -640
2019-04-17 20:48:37 GMT 55.824467 36.155064 7,125 80 352 -704
2019-04-17 20:48:34 GMT 55.823906 36.148796 7,150 80 353 -768
2019-04-17 20:48:29 GMT 55.822742 36.136436 7,200 80 354 -640
2019-04-17 20:48:26 GMT 55.821442 36.122444 7,250 80 354 -448
2019-04-17 20:48:23 GMT 55.820789 36.115494 7,275 80 355 -448
2019-04-17 20:48:19 GMT 55.819885 36.105736 7,300 80 357 -512
2019-04-17 20:48:14 GMT 55.818230 36.088631 7,325 80 358 -512
2019-04-17 20:48:11 GMT 55.817532 36.081421 7,350 80 359 -384
2019-04-17 20:48:01 GMT 55.814713 36.052551 7,450 80 361 -1216
2019-04-17 20:47:49 GMT 55.811710 36.020477 7,700 80 359 -1344
2019-04-17 20:47:39 GMT 55.808716 35.989464 7,925 80 358 -960
2019-04-17 20:47:36 GMT 55.807709 35.979279 7,975 79 358 -1024
2019-04-17 20:47:29 GMT 55.805752 35.960224 8,100 79 360 -1216
2019-04-17 20:47:25 GMT 55.804367 35.946850 8,200 79 360 -1280
2019-04-17 20:47:18 GMT 55.801025 35.915138 9,100 79 367 -1664
2019-04-17 20:47:13 GMT 55.801025 35.915138 8,450 79 363 -1408
2019-04-17 20:47:07 GMT 55.799240 35.898075 8,600 79 364 -1856
2019-04-17 20:47:00 GMT 55.796673 35.873711 8,875 79 364 -1920
2019-04-17 20:46:57 GMT 55.796070 35.867870 9,100 79 367 -1664
2019-04-17 20:46:52 GMT 55.794434 35.853134 9,100 79 367 -1664
2019-04-17 20:46:49 GMT 55.793556 35.844872 9,175 79 367 -1600
2019-04-17 20:46:46 GMT 55.792206 35.832424 9,275 79 369 -1600
2019-04-17 20:46:35 GMT 55.788940 35.801613 9,575 79 372 -1984
2019-04-17 20:46:25 GMT 55.785549 35.770969 9,925 78 375 -2048
2019-04-17 20:46:14 GMT 55.781776 35.737324 10,325 78 377 -2368
2019-04-17 20:46:04 GMT 55.778099 35.704281 10,800 78 377 -2688
2019-04-17 20:45:52 GMT 55.774422 35.672176 11,250 78 377 -2112
2019-04-17 20:45:42 GMT 55.770676 35.640648 11,575 78 380 -1984
2019-04-17 20:45:33 GMT 55.767441 35.613129 11,875 78 383 -1920
2019-04-17 20:45:30 GMT 55.766556 35.605442 11,975 78 383 -1920
2019-04-17 20:45:20 GMT 55.762505 35.570812 12,350 78 389 -1920
2019-04-17 20:45:12 GMT 55.760082 35.549870 12,475 78 390 -1984
2019-04-17 20:45:09 GMT 55.758736 35.538025 12,625 78 390 -2496
2019-04-17 20:45:02 GMT 55.756256 35.516636 12,925 78 391 -2688
2019-04-17 20:44:54 GMT 55.753693 35.494411 13,250 78 390 -2624
2019-04-17 20:44:49 GMT 55.751705 35.477512 13,400 78 390 -2560
2019-04-17 20:44:45 GMT 55.749748 35.460949 13,725 78 389 -2624
2019-04-17 20:44:39 GMT 55.748028 35.446358 15,175 77 371 -3200
2019-04-17 20:44:34 GMT 55.745651 35.426445 14,250 78 386 -3200
2019-04-17 20:44:30 GMT 55.744675 35.418118 14,400 78 385 -3328
2019-04-17 20:44:20 GMT 55.737717 35.360245 15,175 77 371 -3200
2019-04-17 20:44:12 GMT 55.737717 35.360245 15,525 77 373 -3520
2019-04-17 20:44:09 GMT 55.736938 35.354256 15,650 77 372 -3392
2019-04-17 20:44:01 GMT 55.733551 35.326370 16,125 77 369 -2112
2019-04-17 20:43:58 GMT 55.733185 35.323128 18,225 78 382 -1472
2019-04-17 20:43:50 GMT 55.729733 35.294781 16,500 77 369 -2112
2019-04-17 20:43:38 GMT 55.725540 35.260288 16,925 78 368 -2176
2019-04-17 20:43:33 GMT 55.723728 35.244911 17,125 77 368 -2048
2019-04-17 20:43:27 GMT 55.721817 35.229294 17,300 77 368 -1920
2019-04-17 20:43:21 GMT 55.719315 35.210014 17,500 76 368 -1856
2019-04-17 20:43:15 GMT 55.717255 35.195034 17,650 76 368 -1792
2019-04-17 20:43:10 GMT 55.714645 35.176640 17,850 75 368 -1600
2019-04-17 20:43:05 GMT 55.713043 35.165821 17,925 75 371 -1216
2019-04-17 20:42:57 GMT 55.709564 35.141354 18,225 78 382 -1472
2019-04-17 20:42:54 GMT 55.708328 35.132030 18,175 76 376 -1536
2019-04-17 20:42:47 GMT 55.705856 35.112888 18,425 77 378 -1728
2019-04-17 20:42:44 GMT 55.704666 35.103481 18,450 77 378 -1600
2019-04-17 20:42:36 GMT 55.701782 35.079845 18,725 78 382 -1472
2019-04-17 20:42:33 GMT 55.700775 35.071606 18,725 78 382 -1408
2019-04-17 20:42:23 GMT 55.697021 35.038063 18,950 79 388 -1088
2019-04-17 20:42:15 GMT 55.694260 35.013084 19,100 78 391 -1024
2019-04-17 20:42:12 GMT 55.693268 35.004272 19,150 78 393 -1088
2019-04-17 20:42:04 GMT 55.690109 34.976059 19,325 78 396 -1920
2019-04-17 20:42:01 GMT 55.689606 34.971287 19,350 78 399 -1344
2019-04-17 20:41:50 GMT 55.685669 34.935860 19,625 78 402 -1856
2019-04-17 20:41:39 GMT 55.681412 34.897823 20,150 78 401 -3136
2019-04-17 20:41:29 GMT 55.677933 34.866859 20,650 79 397 -3008
2019-04-17 20:41:19 GMT 55.674194 34.832497 21,125 78 395 -2240
2019-04-17 20:41:13 GMT 55.672440 34.816673 21,300 78 396 -1920
2019-04-17 20:41:08 GMT 55.670517 34.799194 21,475 79 398 -1472
2019-04-17 20:40:58 GMT 55.667084 34.766819 21,675 79 402 -1088
2019-04-17 20:40:47 GMT 55.663330 34.731693 21,875 78 407 -1216
2019-04-17 20:40:35 GMT 55.659111 34.694138 22,150 78 408 -1792
2019-04-17 20:40:25 GMT 55.655064 34.659550 22,500 78 407 -1792
2019-04-17 20:40:15 GMT 55.651386 34.628391 22,875 78 405 -1792
2019-04-17 20:40:04 GMT 55.646824 34.590199 23,125 77 405 -1664
2019-04-17 20:39:53 GMT 55.642868 34.553581 23,450 82 410 -1664
2019-04-17 20:39:44 GMT 55.641174 34.525120 23,650 86 415 -1088
2019-04-17 20:39:40 GMT 55.640808 34.511551 23,725 90 420 -1024
2019-04-17 20:39:31 GMT 55.640900 34.482090 23,975 93 423 -1280
2019-04-17 20:39:23 GMT 55.642365 34.451294 24,075 98 429 -1984
2019-04-17 20:39:20 GMT 55.643284 34.440937 24,175 104 452 -1792
2019-04-17 20:39:11 GMT 55.646683 34.413300 24,500 104 435 -1920
2019-04-17 20:38:59 GMT 55.652920 34.370556 24,825 104 438 -1792
2019-04-17 20:38:48 GMT 55.658432 34.333023 25,125 104 441 -1792
2019-04-17 20:38:38 GMT 55.664062 34.294907 25,500 104 443 -1792
2019-04-17 20:38:27 GMT 55.672009 34.240952 26,000 104 448 -1792
2019-04-17 20:38:17 GMT 55.674316 34.224991 26,150 104 449 -1792
2019-04-17 20:38:12 GMT 55.678024 34.199692 26,350 104 451 -1792
2019-04-17 20:38:07 GMT 55.679626 34.188705 26,675 104 452 -1792
2019-04-17 20:38:00 GMT 55.683929 34.158993 26,700 104 452 -1792
2019-04-17 20:37:56 GMT 55.685349 34.148918 26,800 104 453 -1856
2019-04-17 20:37:45 GMT 55.691235 34.108429 27,150 104 454 -1856
2019-04-17 20:37:38 GMT 55.695236 34.080791 27,475 104 454 -1856
2019-04-17 20:37:35 GMT 55.696308 34.073582 27,450 104 455 -1856
2019-04-17 20:37:27 GMT 55.700500 34.044384 27,700 104 455 -1856
2019-04-17 20:37:23 GMT 55.702171 34.032471 27,825 104 455 -1856
2019-04-17 20:37:15 GMT 55.706829 34.000282 28,800 104 462 -1408
2019-04-17 20:37:11 GMT 55.708374 33.989452 28,200 104 457 -1856
2019-04-17 20:37:05 GMT 55.711994 33.964062 28,400 104 458 -1856
2019-04-17 20:37:01 GMT 55.714050 33.949917 28,525 104 458 -1856
2019-04-17 20:36:53 GMT 55.718094 33.921577 28,775 104 459 -1856
2019-04-17 20:36:50 GMT 55.719769 33.909988 28,875 104 459 -1856
2019-04-17 20:36:43 GMT 55.723774 33.881924 29,125 104 460 -1856
2019-04-17 20:36:38 GMT 55.725540 33.869476 29,225 104 461 -1856
2019-04-17 20:36:28 GMT 55.731262 33.829319 29,600 104 461 -1856
2019-04-17 20:36:20 GMT 55.734993 33.802959 29,800 104 462 -1408
2019-04-17 20:36:15 GMT 55.737553 33.784931 29,925 104 463 -960
2019-04-17 20:36:09 GMT 55.740810 33.762188 30,000 104 463 -960
2019-04-17 20:36:03 GMT 55.743851 33.740513 31,200 103 463 -1088
2019-04-17 20:35:59 GMT 55.746048 33.725033 30,200 103 463 -1088
2019-04-17 20:35:53 GMT 55.749283 33.701763 30,300 103 464 -1088
2019-04-17 20:35:49 GMT 55.751450 33.686661 30,375 103 464 -960
2019-04-17 20:35:43 GMT 55.754730 33.663055 30,475 104 465 -896
2019-04-17 20:35:37 GMT 55.757385 33.644173 30,575 104 465 -1152
2019-04-17 20:35:32 GMT 55.760651 33.620827 30,700 103 466 -1280
2019-04-17 20:35:27 GMT 55.762711 33.606094 30,775 103 466 -1280
2019-04-17 20:35:20 GMT 55.766190 33.581211 30,925 103 466 -1216
2019-04-17 20:35:14 GMT 55.769485 33.557571 31,050 103 466 -1216
2019-04-17 20:35:10 GMT 55.771683 33.541927 31,125 103 466 -960
2019-04-17 20:35:06 GMT 55.774330 33.523064 31,200 103 467 -896
2019-04-17 20:35:00 GMT 55.777264 33.501862 31,300 103 468 -1024
2019-04-17 20:34:54 GMT 55.779636 33.485043 31,375 103 469 -1024
2019-04-17 20:34:47 GMT 55.783222 33.459290 31,500 103 470 -1024
2019-04-17 20:34:42 GMT 55.786667 33.434658 31,600 103 471 -896
2019-04-17 20:34:38 GMT 55.787888 33.425655 31,650 103 471 -832
2019-04-17 20:34:32 GMT 55.791458 33.400101 31,750 103 472 -896
2019-04-17 20:34:28 GMT 55.793369 33.386166 31,800 103 473 -960
2019-04-17 20:34:21 GMT 55.797180 33.358654 31,925 103 474 -1088
2019-04-17 20:34:17 GMT 55.798954 33.345821 32,000 103 474 -1216
2019-04-17 20:34:11 GMT 55.802307 33.321617 32,375 103 475 -1344
2019-04-17 20:34:07 GMT 55.804459 33.306137 32,225 103 475 -1344
2019-04-17 20:34:00 GMT 55.808357 33.277760 32,400 103 475 -1280
2019-04-17 20:33:55 GMT 55.810684 33.260777 32,475 103 476 -960
2019-04-17 20:33:45 GMT 55.815674 33.224319 32,650 103 476 -1088
2019-04-17 20:33:39 GMT 55.819244 33.198189 33,325 103 472 -2304
2019-04-17 20:33:34 GMT 55.821167 33.183872 32,950 103 472 -2304
2019-04-17 20:33:28 GMT 55.824371 33.160568 33,175 103 470 -1792
2019-04-17 20:33:24 GMT 55.826469 33.145237 33,275 103 470 -1280
2019-04-17 20:33:18 GMT 55.829544 33.122364 33,400 103 471 -1536
2019-04-17 20:33:13 GMT 55.832100 33.103607 33,525 103 471 -1472
2019-04-17 20:33:07 GMT 55.835220 33.080261 33,700 103 471 -1536
2019-04-17 20:33:03 GMT 55.837219 33.065243 33,800 103 471 -1536
2019-04-17 20:32:56 GMT 55.841034 33.037052 34,000 103 472 -1600
2019-04-17 20:32:52 GMT 55.842773 33.023819 34,100 103 472 -1536
2019-04-17 20:32:42 GMT 55.847694 32.985764 34,375 102 472 -1600
2019-04-17 20:32:34 GMT 55.851189 32.956924 34,575 101 474 -1152
2019-04-17 20:32:31 GMT 55.853188 32.940186 34,650 101 475 -1088
2019-04-17 20:32:24 GMT 55.856049 32.914955 34,775 100 477 -832
2019-04-17 20:32:20 GMT 55.857193 32.904999 34,825 101 477 -896
2019-04-17 20:32:11 GMT 55.861588 32.863770 34,950 100 479 -384
2019-04-17 20:32:03 GMT 55.864922 32.830410 34,975 99 482 -64
2019-04-17 20:31:59 GMT 55.865665 32.822598 34,975 99 482 -128
2019-04-17 20:31:49 GMT 55.869621 32.782001 35,000 99 483 0
2019-04-17 20:31:39 GMT 55.873672 32.741058 35,000 99 482 0
2019-04-17 20:31:27 GMT 55.877769 32.698574 35,000 99 482 0
2019-04-17 20:31:17 GMT 55.881958 32.655697 35,000 99 482 0
2019-04-17 20:31:07 GMT 55.885590 32.618237 35,000 99 482 0
2019-04-17 20:30:55 GMT 55.889832 32.574211 35,000 99 481 0
2019-04-17 20:30:45 GMT 55.893829 32.532494 35,000 99 480 0
2019-04-17 20:30:33 GMT 55.898064 32.488201 35,000 99 480 0
2019-04-17 20:30:25 GMT 55.901371 32.453613 35,000 99 480 0
2019-04-17 20:30:22 GMT 55.902145 32.445374 35,000 99 479 0
2019-04-17 20:30:13 GMT 55.905579 32.409252 35,000 99 479 0
2019-04-17 20:30:02 GMT 55.909744 32.365391 35,000 99 479 0
2019-04-17 20:29:53 GMT 55.913197 32.328472 35,000 99 478 0
2019-04-17 20:29:38 GMT 55.918396 32.273006 35,000 99 478 -64
2019-04-17 20:29:32 GMT 55.920959 32.245541 35,000 99 477 0
2019-04-17 20:29:09 GMT 55.928696 32.162304 35,000 99 477 0
2019-04-17 20:28:59 GMT 55.932281 32.123253 35,000 99 475 0
We lost coverage of the aircraft here for a total of 17 minutes
2019-04-17 20:12:22 GMT 56.195114 28.269882 35,000 93 470 0
2019-04-17 20:11:53 GMT 56.198467 28.157787 35,000 93 471 0
2019-04-17 20:09:10 GMT 56.215714 27.519005 34,975 92 475 0
2019-04-17 20:09:03 GMT 56.216389 27.491570 34,975 92 475 0
2019-04-17 20:08:57 GMT 56.216995 27.466421 34,975 92 475 0
2019-04-17 20:08:45 GMT 56.218140 27.420460 34,975 92 474 0
2019-04-17 20:08:33 GMT 56.219276 27.371750 35,000 92 474 -64
2019-04-17 20:08:25 GMT 56.220016 27.341974 35,000 92 474 0
2019-04-17 20:08:09 GMT 56.221416 27.281199 34,975 92 474 0
2019-04-17 20:07:50 GMT 56.223038 27.205061 35,000 88 471 0
2019-04-17 20:07:43 GMT 56.223606 27.177601 35,000 92 474 -64
2019-04-17 20:07:26 GMT 56.224861 27.109795 35,000 90 472 0
2019-04-17 20:07:18 GMT 56.224724 27.079411 35,000 88 470 0
2019-04-17 20:07:12 GMT 56.224182 27.057245 34,975 86 469 0
2019-04-17 20:07:05 GMT 56.223141 27.030916 34,975 84 467 0
2019-04-17 20:07:02 GMT 56.222488 27.018213 34,975 83 466 0
2019-04-17 20:06:52 GMT 56.219696 26.979509 34,975 80 464 -64
2019-04-17 20:06:36 GMT 56.213150 26.919334 34,975 78 462 0
2019-04-17 20:06:30 GMT 56.210632 26.898359 34,975 77 462 0
2019-04-17 20:06:20 GMT 56.206146 26.860991 34,975 77 462 0
2019-04-17 20:06:09 GMT 56.200928 26.818043 35,000 77 462 0
2019-04-17 20:05:58 GMT 56.196095 26.778402 35,000 77 462 -64
2019-04-17 20:05:49 GMT 56.191818 26.743303 35,000 77 462 0
2019-04-17 20:05:37 GMT 56.186317 26.698065 35,000 77 462 0
2019-04-17 20:05:29 GMT 56.182545 26.667423 34,975 77 462 0
2019-04-17 20:05:17 GMT 56.177238 26.623993 34,975 77 462 0
2019-04-17 20:05:12 GMT 56.174698 26.603477 34,975 77 463 0
2019-04-17 20:05:01 GMT 56.169930 26.564941 35,000 77 463 -64
2019-04-17 20:04:52 GMT 56.165695 26.530867 35,000 77 463 0
2019-04-17 20:04:44 GMT 56.161789 26.499023 35,000 77 463 0
2019-04-17 20:04:33 GMT 56.156982 26.460487 35,000 77 464 -64
2019-04-17 20:04:22 GMT 56.151447 26.415939 35,000 77 464 0
2019-04-17 20:04:12 GMT 56.147049 26.380671 35,000 77 464 -64
2019-04-17 20:04:02 GMT 56.142418 26.343584 34,975 77 464 64
2019-04-17 20:03:52 GMT 56.137665 26.305763 34,975 77 464 0
2019-04-17 20:03:41 GMT 56.131710 26.258612 35,000 77 464 0
2019-04-17 20:03:30 GMT 56.127045 26.221619 34,975 77 463 0
2019-04-17 20:03:15 GMT 56.119934 26.165571 35,000 77 464 -64
2019-04-17 20:03:08 GMT 56.116814 26.140852 35,000 77 463 0
2019-04-17 20:02:59 GMT 56.112350 26.106178 35,000 77 463 0
2019-04-17 20:02:53 GMT 56.109741 26.085621 35,000 77 463 0
2019-04-17 20:02:42 GMT 56.104202 26.042341 34,975 77 463 0
2019-04-17 20:02:27 GMT 56.097401 25.989017 34,975 77 463 0
2019-04-17 20:02:22 GMT 56.095001 25.970348 34,975 77 462 -64
2019-04-17 20:02:12 GMT 56.090286 25.933893 34,975 77 462 0
2019-04-17 20:02:07 GMT 56.087540 25.912670 35,000 76 463 0
2019-04-17 20:02:02 GMT 56.085205 25.894775 35,000 76 463 0
2019-04-17 20:01:52 GMT 56.080353 25.857239 35,000 76 463 0
2019-04-17 20:01:41 GMT 56.075336 25.818558 35,000 76 463 0
2019-04-17 20:01:35 GMT 56.071747 25.791071 35,000 76 463 0
2019-04-17 20:01:31 GMT 56.070328 25.780334 35,000 76 463 0
2019-04-17 20:01:20 GMT 56.065155 25.740551 35,000 76 463 0
2019-04-17 20:01:07 GMT 56.058624 25.690842 35,000 76 462 0
2019-04-17 20:00:43 GMT 56.047031 25.602522 35,000 76 462 0
2019-04-17 20:00:39 GMT 56.045078 25.587673 35,000 76 462 0
2019-04-17 20:00:30 GMT 56.039722 25.547333 35,000 76 461 0
2019-04-17 20:00:11 GMT 56.031189 25.482956 34,975 76 461 0
2019-04-17 20:00:01 GMT 56.026222 25.445623 35,000 76 461 0
2019-04-17 19:59:46 GMT 56.018681 25.389490 34,975 76 460 0
2019-04-17 19:59:32 GMT 56.011932 25.338850 34,975 76 460 0
2019-04-17 19:59:25 GMT 56.008488 25.313444 34,975 76 460 0
2019-04-17 19:59:19 GMT 56.004547 25.284285 35,000 76 460 0
2019-04-17 19:58:51 GMT 55.991821 25.189985 35,000 76 460 0
2019-04-17 19:58:46 GMT 55.988800 25.167847 34,975 76 460 0
2019-04-17 19:58:35 GMT 55.983582 25.129560 34,975 76 461 0
2019-04-17 19:58:28 GMT 55.979530 25.099726 35,000 76 460 -64
2019-04-17 19:58:15 GMT 55.973293 25.054150 34,975 76 460 0
2019-04-17 19:58:04 GMT 55.968109 25.016619 34,975 76 460 0
2019-04-17 19:57:54 GMT 55.962818 24.977932 35,000 76 460 0
2019-04-17 19:57:43 GMT 55.957092 24.936390 35,000 76 460 0
2019-04-17 19:57:31 GMT 55.951035 24.892689 35,000 76 460 0
2019-04-17 19:57:27 GMT 55.948975 24.877956 34,975 76 460 0
2019-04-17 19:57:22 GMT 55.946712 24.861803 35,000 76 460 0
2019-04-17 19:57:16 GMT 55.942932 24.834595 35,000 76 460 -64
2019-04-17 19:57:06 GMT 55.938263 24.801136 35,000 76 460 64
2019-04-17 19:57:00 GMT 55.934738 24.775751 34,975 76 460 0
2019-04-17 19:56:52 GMT 55.930885 24.748249 34,975 75 460 -64
2019-04-17 19:56:45 GMT 55.927719 24.725418 35,000 75 460 0
2019-04-17 19:56:33 GMT 55.921097 24.678455 34,975 75 460 0
2019-04-17 19:56:21 GMT 55.915009 24.635176 34,975 75 459 0
2019-04-17 19:56:14 GMT 55.911285 24.608774 35,000 75 459 0
2019-04-17 19:56:04 GMT 55.906403 24.574335 35,000 75 459 0
2019-04-17 19:55:55 GMT 55.901649 24.540625 35,000 75 460 -64
2019-04-17 19:55:50 GMT 55.899090 24.522686 35,000 75 460 0
2019-04-17 19:55:41 GMT 55.893784 24.485264 35,000 75 460 -64
2019-04-17 19:55:32 GMT 55.889877 24.457813 35,000 75 460 0
2019-04-17 19:55:29 GMT 55.888008 24.444666 35,000 75 460 0
2019-04-17 19:55:21 GMT 55.884193 24.417543 35,000 75 460 0
2019-04-17 19:55:16 GMT 55.881397 24.398146 35,000 75 460 0
2019-04-17 19:55:07 GMT 55.876511 24.363728 35,000 75 461 0
2019-04-17 19:54:55 GMT 55.870274 24.320126 35,000 75 461 0
2019-04-17 19:54:52 GMT 55.868504 24.307680 35,000 75 461 0
2019-04-17 19:54:47 GMT 55.865570 24.287109 35,000 75 461 0
2019-04-17 19:54:41 GMT 55.862823 24.268133 35,000 75 461 0
2019-04-17 19:54:35 GMT 55.859802 24.247242 35,000 75 461 0
2019-04-17 19:54:31 GMT 55.857513 24.231428 35,000 75 461 0
2019-04-17 19:54:25 GMT 55.854492 24.210176 35,000 75 461 64
2019-04-17 19:54:19 GMT 55.850536 24.183140 34,975 75 460 0
2019-04-17 19:54:15 GMT 55.849182 24.174000 34,975 74 461 0
2019-04-17 19:54:09 GMT 55.845928 24.153271 34,975 74 461 0
2019-04-17 19:54:04 GMT 55.842484 24.132242 34,975 73 461 0
2019-04-17 19:54:00 GMT 55.839874 24.117050 34,975 72 460 0
2019-04-17 19:53:56 GMT 55.837646 24.104420 34,975 71 461 0
2019-04-17 19:53:50 GMT 55.833435 24.081450 34,975 71 460 0
2019-04-17 19:53:44 GMT 55.829773 24.062555 34,975 70 460 0
2019-04-17 19:53:41 GMT 55.827530 24.051569 34,975 69 460 0
2019-04-17 19:53:35 GMT 55.822231 24.026413 34,975 69 460 0
2019-04-17 19:53:31 GMT 55.819199 24.011951 34,975 69 460 0
2019-04-17 19:53:28 GMT 55.818054 24.006708 34,975 69 460 0
2019-04-17 19:53:23 GMT 55.813843 23.986900 35,000 69 460 0
2019-04-17 19:53:20 GMT 55.812084 23.978777 35,000 69 460 0
2019-04-17 19:53:13 GMT 55.806976 23.954857 35,000 69 461 0
2019-04-17 19:53:09 GMT 55.804031 23.941097 35,000 69 461 0
2019-04-17 19:53:04 GMT 55.799423 23.919567 35,000 69 460 0
2019-04-17 19:52:59 GMT 55.795792 23.902645 35,000 69 460 0
2019-04-17 19:52:56 GMT 55.793564 23.892101 35,000 69 461 0
2019-04-17 19:52:53 GMT 55.791046 23.880449 35,000 69 460 0
2019-04-17 19:52:46 GMT 55.785271 23.853722 35,000 69 461 0
2019-04-17 19:52:42 GMT 55.782848 23.842392 35,000 69 460 0
2019-04-17 19:52:37 GMT 55.779171 23.825140 35,000 69 461 0
2019-04-17 19:52:33 GMT 55.771629 23.790293 35,000 69 461 0
2019-04-17 19:52:28 GMT 55.771629 23.790293 35,000 69 461 0
2019-04-17 19:52:23 GMT 55.768372 23.775101 35,000 69 461 0
2019-04-17 19:52:17 GMT 55.764587 23.757519 35,000 69 461 0
2019-04-17 19:52:12 GMT 55.758408 23.729010 35,000 69 461 0
2019-04-17 19:52:02 GMT 55.752090 23.699757 35,000 69 460 0
2019-04-17 19:51:52 GMT 55.744812 23.665966 35,000 69 460 64
2019-04-17 19:51:45 GMT 55.739834 23.643179 34,975 68 460 0
2019-04-17 19:51:40 GMT 55.736252 23.626614 34,975 68 459 0
2019-04-17 19:51:37 GMT 55.733139 23.612200 35,000 68 459 0
2019-04-17 19:51:30 GMT 55.728149 23.589478 35,000 68 459 0
2019-04-17 19:51:25 GMT 55.724331 23.571939 34,975 68 459 0
2019-04-17 19:51:18 GMT 55.719585 23.550224 34,975 68 459 0
2019-04-17 19:51:14 GMT 55.715858 23.533058 34,975 68 459 0
2019-04-17 19:51:10 GMT 55.713486 23.522158 34,975 68 459 0
2019-04-17 19:51:07 GMT 55.709885 23.505749 34,975 68 459 0
2019-04-17 19:51:04 GMT 55.708374 23.498756 34,975 68 459 0
2019-04-17 19:51:01 GMT 55.705383 23.485079 34,975 68 459 0
2019-04-17 19:50:56 GMT 55.702194 23.470375 34,975 68 459 0
2019-04-17 19:50:53 GMT 55.700264 23.461647 35,000 68 459 0
2019-04-17 19:50:49 GMT 55.696217 23.443193 35,000 68 458 0
2019-04-17 19:50:44 GMT 55.692535 23.426430 34,975 68 458 0
2019-04-17 19:50:40 GMT 55.689926 23.414530 34,975 68 458 0
2019-04-17 19:50:35 GMT 55.685898 23.396051 34,975 68 458 0
2019-04-17 19:50:32 GMT 55.684341 23.389059 34,975 68 458 0
2019-04-17 19:50:27 GMT 55.679688 23.367834 34,975 68 458 0
2019-04-17 19:50:23 GMT 55.677063 23.355934 34,975 68 458 0
2019-04-17 19:50:20 GMT 55.674316 23.343451 34,975 68 458 0
2019-04-17 19:50:17 GMT 55.672211 23.334045 35,000 68 458 0
2019-04-17 19:50:12 GMT 55.668377 23.316593 35,000 68 458 0
2019-04-17 19:50:09 GMT 55.663559 23.294678 34,975 68 458 64
2019-04-17 19:50:02 GMT 55.661041 23.283192 34,975 68 458 0
2019-04-17 19:49:58 GMT 55.654083 23.251877 34,975 68 457 0
2019-04-17 19:49:53 GMT 55.654083 23.251877 34,975 68 457 0
2019-04-17 19:49:49 GMT 55.650639 23.236256 34,975 68 457 0
2019-04-17 19:49:45 GMT 55.647858 23.223682 34,975 68 457 0
2019-04-17 19:49:42 GMT 55.646030 23.215399 34,975 68 457 0
2019-04-17 19:49:39 GMT 55.642494 23.199348 34,975 68 457 0
2019-04-17 19:49:36 GMT 55.640026 23.188276 34,975 68 457 0
2019-04-17 19:49:31 GMT 55.637653 23.177462 34,975 68 457 0
2019-04-17 19:49:27 GMT 55.634033 23.161177 34,975 68 457 0
2019-04-17 19:49:24 GMT 55.631927 23.151772 34,975 68 457 0
2019-04-17 19:49:21 GMT 55.629646 23.141413 34,975 68 457 0
2019-04-17 19:49:17 GMT 55.626526 23.127508 34,975 68 457 0
2019-04-17 19:49:14 GMT 55.623314 23.112917 34,975 68 457 0
2019-04-17 19:49:11 GMT 55.621361 23.104248 34,975 68 457 0
2019-04-17 19:49:07 GMT 55.618561 23.091764 34,975 68 457 -64
2019-04-17 19:49:03 GMT 55.615864 23.079615 35,000 68 457 0
2019-04-17 19:49:00 GMT 55.613071 23.067169 34,975 68 457 0
2019-04-17 19:48:56 GMT 55.610233 23.054295 35,000 68 457 0
2019-04-17 19:48:52 GMT 55.606522 23.037664 35,000 68 457 0
2019-04-17 19:48:46 GMT 55.602646 23.020306 35,000 68 457 0
2019-04-17 19:48:40 GMT 55.597595 22.997797 35,000 68 457 0
2019-04-17 19:48:36 GMT 55.594730 22.984943 34,975 68 458 0
2019-04-17 19:48:30 GMT 55.589035 22.959595 35,000 68 458 0
2019-04-17 19:48:25 GMT 55.586258 22.947092 35,000 68 458 0
2019-04-17 19:48:21 GMT 55.582115 22.928724 34,975 68 458 0
2019-04-17 19:48:15 GMT 55.578438 22.912416 35,000 68 458 0
2019-04-17 19:48:09 GMT 55.573471 22.890265 35,000 68 458 0
2019-04-17 19:48:05 GMT 55.570663 22.877741 35,000 68 458 0
2019-04-17 19:48:02 GMT 55.567474 22.863464 35,000 68 458 0
2019-04-17 19:47:58 GMT 55.564938 22.852421 35,000 68 458 0
2019-04-17 19:47:55 GMT 55.562283 22.840576 35,000 68 458 0
2019-04-17 19:47:51 GMT 55.559536 22.828474 35,000 68 458 0
2019-04-17 19:47:48 GMT 55.557117 22.817745 35,000 68 458 0
2019-04-17 19:47:44 GMT 55.553696 22.802458 35,000 68 458 0
2019-04-17 19:47:38 GMT 55.549065 22.782040 35,000 68 458 0
2019-04-17 19:47:33 GMT 55.545822 22.767834 35,000 68 459 0
2019-04-17 19:47:27 GMT 55.540871 22.745991 35,000 68 459 0
2019-04-17 19:47:23 GMT 55.537811 22.732462 35,000 68 459 0
2019-04-17 19:47:16 GMT 55.531906 22.706409 35,000 68 458 0
2019-04-17 19:47:12 GMT 55.529388 22.695339 35,000 68 458 0
2019-04-17 19:47:07 GMT 55.525223 22.677031 35,000 68 459 0
2019-04-17 19:47:02 GMT 55.521561 22.660717 35,000 68 459 0
2019-04-17 19:46:57 GMT 55.516663 22.639242 35,000 68 459 0
2019-04-17 19:46:52 GMT 55.512955 22.623014 35,000 68 459 0
2019-04-17 19:46:47 GMT 55.508926 22.605370 35,000 68 459 0
2019-04-17 19:46:43 GMT 55.505951 22.592218 35,000 68 459 0
2019-04-17 19:46:36 GMT 55.500595 22.568665 35,000 68 459 0
2019-04-17 19:46:32 GMT 55.497341 22.554502 35,000 68 458 0
2019-04-17 19:46:26 GMT 55.492676 22.534124 34,975 67 458 64
2019-04-17 19:46:21 GMT 55.489056 22.518196 34,975 67 458 0
2019-04-17 19:46:16 GMT 55.484447 22.498198 35,000 67 458 0
2019-04-17 19:46:11 GMT 55.480816 22.482319 35,000 67 458 0
2019-04-17 19:46:05 GMT 55.476070 22.461634 35,000 67 458 0
2019-04-17 19:46:02 GMT 55.473602 22.450905 34,975 67 458 0
2019-04-17 19:45:58 GMT 55.471043 22.439919 34,975 67 458 0
2019-04-17 19:45:55 GMT 55.465267 22.414684 35,000 67 458 0
2019-04-17 19:45:52 GMT 55.465267 22.414684 35,000 67 458 0
2019-04-17 19:45:45 GMT 55.459717 22.390553 34,975 67 457 0
2019-04-17 19:45:39 GMT 55.455585 22.372713 35,000 67 457 0
2019-04-17 19:45:34 GMT 55.451302 22.354088 35,000 67 457 0
2019-04-17 19:45:31 GMT 55.448837 22.343445 35,000 67 457 0
2019-04-17 19:45:24 GMT 55.440552 22.307655 35,000 67 457 0
2019-04-17 19:45:21 GMT 55.440552 22.307655 35,000 67 457 0
2019-04-17 19:45:14 GMT 55.434586 22.281809 35,000 67 457 0
2019-04-17 19:45:10 GMT 55.432526 22.272842 35,000 67 457 0
2019-04-17 19:45:06 GMT 55.429005 22.257717 34,975 67 457 0
2019-04-17 19:45:02 GMT 55.425980 22.244650 34,975 67 458 0
2019-04-17 19:44:59 GMT 55.423965 22.236086 34,975 67 457 0
2019-04-17 19:44:54 GMT 55.419434 22.216537 35,000 67 458 0
2019-04-17 19:44:50 GMT 55.415817 22.201027 35,000 67 458 0
2019-04-17 19:44:45 GMT 55.412796 22.188021 35,000 67 458 0
2019-04-17 19:44:42 GMT 55.410278 22.177357 34,975 67 457 0
2019-04-17 19:44:38 GMT 55.407173 22.164001 35,000 67 457 0
2019-04-17 19:44:35 GMT 55.404705 22.153349 35,000 67 457 0
2019-04-17 19:44:31 GMT 55.398838 22.128296 35,000 67 457 0
2019-04-17 19:44:22 GMT 55.392879 22.102911 35,000 67 457 0
2019-04-17 19:44:19 GMT 55.391190 22.095688 35,000 67 457 0
2019-04-17 19:44:11 GMT 55.385010 22.069271 35,000 67 457 0
2019-04-17 19:44:08 GMT 55.382446 22.058285 35,000 67 457 0
2019-04-17 19:44:01 GMT 55.376770 22.033970 35,000 67 458 0
2019-04-17 19:43:58 GMT 55.374493 22.024342 35,000 67 458 0
2019-04-17 19:43:52 GMT 55.369930 22.004784 34,975 67 458 0
2019-04-17 19:43:48 GMT 55.366379 21.989700 34,975 67 458 0
2019-04-17 19:43:41 GMT 55.360016 21.962559 35,000 67 457 0
2019-04-17 19:43:36 GMT 55.357174 21.950600 35,000 67 457 0
2019-04-17 19:43:29 GMT 55.350815 21.923540 34,975 67 458 0
2019-04-17 19:43:26 GMT 55.348980 21.915644 34,975 67 458 0
2019-04-17 19:43:19 GMT 55.343441 21.891924 34,975 67 458 0
2019-04-17 19:43:16 GMT 55.340836 21.880968 34,975 67 458 0
2019-04-17 19:43:09 GMT 55.335022 21.856331 34,975 67 457 0
2019-04-17 19:43:05 GMT 55.331944 21.843317 34,975 67 457 0
2019-04-17 19:42:59 GMT 55.326359 21.819679 34,975 67 458 0
2019-04-17 19:42:55 GMT 55.323841 21.809027 34,975 67 458 0
2019-04-17 19:42:49 GMT 55.318768 21.787470 34,975 67 458 0
2019-04-17 19:42:45 GMT 55.315742 21.774818 34,975 67 457 0
2019-04-17 19:42:42 GMT 55.312454 21.760765 34,975 67 458 0
2019-04-17 19:42:38 GMT 55.309891 21.749779 34,975 67 458 -64
2019-04-17 19:42:35 GMT 55.307373 21.739197 34,975 67 459 -64
2019-04-17 19:42:30 GMT 55.303391 21.722395 35,000 67 458 -64
2019-04-17 19:42:27 GMT 55.301220 21.713146 35,000 67 458 -64
2019-04-17 19:42:24 GMT 55.298706 21.702576 35,000 67 459 -64
2019-04-17 19:42:17 GMT 55.292587 21.676832 35,000 67 459 -64
2019-04-17 19:42:13 GMT 55.290325 21.667286 35,000 67 459 0
2019-04-17 19:42:08 GMT 55.285858 21.648476 35,000 67 458 0
2019-04-17 19:42:04 GMT 55.282242 21.633373 35,000 67 458 0
2019-04-17 19:42:00 GMT 55.279152 21.620428 35,000 67 459 0
2019-04-17 19:41:55 GMT 55.274826 21.602272 35,000 67 459 0
2019-04-17 19:41:52 GMT 55.272774 21.593712 35,000 67 459 0
2019-04-17 19:41:47 GMT 55.268967 21.577955 35,000 67 460 0
2019-04-17 19:41:44 GMT 55.260910 21.544432 35,000 67 459 0
2019-04-17 19:41:38 GMT 55.260910 21.544432 35,000 67 459 0
2019-04-17 19:41:35 GMT 55.256344 21.525213 34,975 59 462 0
2019-04-17 19:41:29 GMT 55.252804 21.510899 34,975 65 459 0
2019-04-17 19:41:25 GMT 55.249870 21.499329 34,975 65 460 0
2019-04-17 19:41:22 GMT 55.247452 21.490227 34,975 64 460 0
2019-04-17 19:41:15 GMT 55.241364 21.468578 35,000 62 460 0
2019-04-17 19:41:12 GMT 55.238651 21.459295 35,000 59 462 0
2019-04-17 19:41:04 GMT 55.229343 21.429583 35,000 59 461 0
2019-04-17 19:41:00 GMT 55.225159 21.416958 35,000 59 462 0
2019-04-17 19:40:54 GMT 55.218124 21.396955 34,975 57 463 0
2019-04-17 19:40:51 GMT 55.215794 21.390631 35,000 56 463 0
2019-04-17 19:40:46 GMT 55.209511 21.374151 35,000 55 464 64
2019-04-17 19:40:41 GMT 55.203133 21.358253 35,000 54 464 0
2019-04-17 19:40:34 GMT 55.193588 21.334700 35,000 54 464 0
2019-04-17 19:40:31 GMT 55.190369 21.326725 35,000 54 464 0
2019-04-17 19:40:24 GMT 55.182953 21.308388 35,000 54 464 0
2019-04-17 19:40:20 GMT 55.177391 21.294666 35,000 54 464 0
2019-04-17 19:40:13 GMT 55.168076 21.271711 35,000 54 464 0
2019-04-17 19:40:10 GMT 55.164959 21.264120 35,000 54 464 64
2019-04-17 19:40:04 GMT 55.157410 21.245459 35,000 54 464 64
2019-04-17 19:40:00 GMT 55.151825 21.231726 34,975 54 464 0
2019-04-17 19:39:52 GMT 55.142521 21.208857 35,000 54 464 0
2019-04-17 19:39:49 GMT 55.138824 21.199656 34,975 54 464 0
2019-04-17 19:39:42 GMT 55.128788 21.174982 35,000 54 463 0
2019-04-17 19:39:38 GMT 55.125530 21.167074 35,000 54 463 0
2019-04-17 19:39:31 GMT 55.116623 21.145126 35,000 54 463 0
2019-04-17 19:39:28 GMT 55.113380 21.137280 35,000 54 463 64
2019-04-17 19:39:23 GMT 55.106552 21.120489 34,975 54 463 64
2019-04-17 19:39:20 GMT 55.102955 21.111729 34,975 54 463 0
2019-04-17 19:39:17 GMT 55.099369 21.102905 34,975 54 463 0
2019-04-17 19:39:12 GMT 55.093269 21.088007 34,975 54 463 0
2019-04-17 19:39:08 GMT 55.087685 21.074356 34,975 54 463 0
2019-04-17 19:39:03 GMT 55.081120 21.058210 35,000 54 463 -64
2019-04-17 19:39:00 GMT 55.077393 21.049158 35,000 54 462 0
2019-04-17 19:38:57 GMT 55.074417 21.041887 34,975 54 462 0
2019-04-17 19:38:52 GMT 55.068604 21.027590 35,000 54 463 0
2019-04-17 19:38:49 GMT 55.064529 21.017572 35,000 54 463 0
2019-04-17 19:38:46 GMT 55.061520 21.010353 35,000 54 462 0
2019-04-17 19:38:42 GMT 55.055603 20.995842 35,000 54 462 -64
2019-04-17 19:38:39 GMT 55.051884 20.986717 35,000 54 462 0
2019-04-17 19:38:36 GMT 55.048782 20.979120 35,000 54 462 0
2019-04-17 19:38:29 GMT 55.039921 20.957336 35,000 54 462 0
2019-04-17 19:38:26 GMT 55.036057 20.947931 35,000 54 461 0
2019-04-17 19:38:16 GMT 55.023514 20.917000 34,975 54 462 0
2019-04-17 19:38:09 GMT 55.015480 20.897327 35,000 54 462 -64
2019-04-17 19:38:05 GMT 55.010696 20.885494 35,000 54 462 0
2019-04-17 19:38:01 GMT 55.004196 20.869419 35,000 54 462 0
2019-04-17 19:37:58 GMT 55.001724 20.863359 35,000 54 462 0
2019-04-17 19:37:55 GMT 54.998024 20.854216 34,975 54 462 0
2019-04-17 19:37:49 GMT 54.990341 20.835155 34,975 54 461 0
2019-04-17 19:37:45 GMT 54.984711 20.821173 34,975 54 461 0
2019-04-17 19:37:38 GMT 54.977737 20.803823 34,975 54 461 0
2019-04-17 19:37:34 GMT 54.972233 20.790211 35,000 55 461 0
2019-04-17 19:37:26 GMT 54.961761 20.764078 34,975 55 461 0
2019-04-17 19:37:18 GMT 54.953007 20.742271 35,000 55 461 -64
2019-04-17 19:37:14 GMT 54.947281 20.728039 35,000 55 461 0
2019-04-17 19:37:06 GMT 54.934479 20.696222 34,975 54 461 0
2019-04-17 19:36:55 GMT 54.921726 20.664783 34,975 54 462 0
2019-04-17 19:36:47 GMT 54.914749 20.647997 34,975 53 461 0
2019-04-17 19:36:42 GMT 54.906738 20.629255 35,000 52 463 -64
2019-04-17 19:36:38 GMT 54.902313 20.619341 35,000 51 463 0
2019-04-17 19:36:31 GMT 54.893784 20.600739 34,975 51 463 0
2019-04-17 19:36:24 GMT 54.884445 20.580544 35,000 51 463 0
2019-04-17 19:36:21 GMT 54.879364 20.569557 35,000 51 463 0
2019-04-17 19:36:13 GMT 54.870239 20.549845 35,000 51 463 0
2019-04-17 19:36:10 GMT 54.866096 20.540937 34,975 51 463 64
2019-04-17 19:36:03 GMT 54.857025 20.521250 34,975 51 463 0
2019-04-17 19:36:00 GMT 54.852455 20.511391 34,975 51 463 0
2019-04-17 19:35:53 GMT 54.842258 20.489502 35,000 51 463 0
2019-04-17 19:35:49 GMT 54.838116 20.480513 34,975 51 463 0
2019-04-17 19:35:41 GMT 54.827129 20.456877 35,000 51 464 0
2019-04-17 19:35:38 GMT 54.822571 20.447056 35,000 51 464 0
2019-04-17 19:35:31 GMT 54.813538 20.427624 35,000 51 464 0
2019-04-17 19:35:28 GMT 54.809235 20.418413 35,000 51 464 0
2019-04-17 19:35:22 GMT 54.797150 20.392372 35,000 51 465 0
2019-04-17 19:35:10 GMT 54.784348 20.364906 35,000 51 465 0
2019-04-17 19:35:02 GMT 54.773163 20.340944 35,000 51 465 64
2019-04-17 19:34:59 GMT 54.770897 20.336025 34,975 51 465 64
2019-04-17 19:34:49 GMT 54.756744 20.305647 34,975 51 465 0
2019-04-17 19:34:38 GMT 54.742405 20.275019 34,975 51 465 0
2019-04-17 19:34:28 GMT 54.728806 20.245865 34,975 51 465 0
2019-04-17 19:34:17 GMT 54.713837 20.213875 34,975 51 465 0
2019-04-17 19:34:07 GMT 54.701157 20.186731 35,000 51 465 0
2019-04-17 19:34:04 GMT 54.695854 20.175558 35,000 51 465 0
2019-04-17 19:33:57 GMT 54.687473 20.157665 34,975 51 465 0
2019-04-17 19:33:54 GMT 54.683285 20.148676 35,000 51 465 0
2019-04-17 19:33:48 GMT 54.674534 20.129950 34,975 51 465 0
2019-04-17 19:33:45 GMT 54.671272 20.123041 34,975 51 465 0
2019-04-17 19:33:40 GMT 54.663685 20.106895 34,975 50 466 0
2019-04-17 19:33:37 GMT 54.660706 20.100569 35,000 50 466 0
2019-04-17 19:33:34 GMT 54.655838 20.090197 34,975 50 466 0
2019-04-17 19:33:28 GMT 54.647003 20.071537 35,000 50 466 0
2019-04-17 19:33:24 GMT 54.641994 20.060869 35,000 50 466 0
2019-04-17 19:33:15 GMT 54.630306 20.036148 34,975 50 466 0
2019-04-17 19:33:10 GMT 54.622284 20.019110 34,975 50 466 0
2019-04-17 19:33:06 GMT 54.613861 20.001337 34,975 50 466 0
2019-04-17 19:32:57 GMT 54.604565 19.981800 34,975 50 466 0
2019-04-17 19:32:51 GMT 54.596649 19.965155 35,000 50 466 0
2019-04-17 19:32:45 GMT 54.589390 19.950006 34,975 50 466 0
2019-04-17 19:32:42 GMT 54.576260 19.922459 35,000 50 466 0
2019-04-17 19:32:35 GMT 54.576260 19.922459 35,000 50 466 0
2019-04-17 19:32:32 GMT 54.571609 19.912720 35,000 50 466 0
2019-04-17 19:32:26 GMT 54.562016 19.892744 35,000 50 466 0
2019-04-17 19:32:23 GMT 54.559547 19.887585 35,000 50 466 0
2019-04-17 19:32:15 GMT 54.548172 19.863848 35,000 50 466 0
2019-04-17 19:32:12 GMT 54.543816 19.854710 35,000 50 466 0
2019-04-17 19:32:05 GMT 54.533897 19.834150 35,000 50 466 0
2019-04-17 19:32:02 GMT 54.530361 19.826660 35,000 50 467 0
2019-04-17 19:31:59 GMT 54.526245 19.818125 35,000 50 467 0
2019-04-17 19:31:52 GMT 54.512833 19.790012 35,000 50 467 64
2019-04-17 19:31:49 GMT 54.512833 19.790012 35,000 50 467 64
2019-04-17 19:31:43 GMT 54.503952 19.771353 34,975 50 467 64
2019-04-17 19:31:40 GMT 54.500568 19.764154 35,000 50 467 0
2019-04-17 19:31:37 GMT 54.496563 19.755833 35,000 50 468 0
2019-04-17 19:31:33 GMT 54.487244 19.736374 35,000 52 466 0
2019-04-17 19:31:30 GMT 54.474731 19.709972 35,000 50 468 64
2019-04-17 19:31:22 GMT 54.474731 19.709972 35,000 52 466 0
2019-04-17 19:31:19 GMT 54.472076 19.704063 35,000 58 463 -64
2019-04-17 19:31:13 GMT 54.459732 19.675220 34,975 54 465 0
2019-04-17 19:31:10 GMT 54.459732 19.675220 34,975 55 464 0
2019-04-17 19:31:03 GMT 54.450485 19.651714 34,975 57 464 64
2019-04-17 19:30:59 GMT 54.443619 19.633135 34,975 58 463 -64
2019-04-17 19:30:52 GMT 54.436184 19.611677 34,975 60 463 -64
2019-04-17 19:30:49 GMT 54.436184 19.611677 35,000 61 462 -64
2019-04-17 19:30:40 GMT 54.427200 19.583048 35,000 63 461 0
2019-04-17 19:30:36 GMT 54.423294 19.569639 35,000 63 460 0
2019-04-17 19:30:29 GMT 54.416748 19.547100 35,000 63 460 0
2019-04-17 19:30:26 GMT 54.413635 19.536358 35,000 63 460 0
2019-04-17 19:30:20 GMT 54.407455 19.515192 35,000 63 460 0
2019-04-17 19:30:15 GMT 54.403553 19.501814 35,000 63 460 0
2019-04-17 19:30:09 GMT 54.397312 19.480259 35,000 63 460 0
2019-04-17 19:30:06 GMT 54.393585 19.467531 35,000 63 460 64
2019-04-17 19:30:03 GMT 54.392193 19.462696 35,000 63 460 64
2019-04-17 19:29:58 GMT 54.386887 19.444469 35,000 63 460 0
2019-04-17 19:29:54 GMT 54.383163 19.431734 35,000 63 459 0
2019-04-17 19:29:50 GMT 54.378616 19.416155 35,000 63 459 0
2019-04-17 19:29:45 GMT 54.374039 19.400524 35,000 63 458 0
2019-04-17 19:29:38 GMT 54.368546 19.381714 34,975 63 459 64
2019-04-17 19:29:34 GMT 54.364105 19.366472 34,975 63 458 0
2019-04-17 19:29:27 GMT 54.357140 19.342846 35,000 63 458 0
2019-04-17 19:29:22 GMT 54.353256 19.329556 35,000 63 458 0
2019-04-17 19:29:19 GMT 54.348900 19.314631 35,000 63 458 0
2019-04-17 19:29:10 GMT 54.341904 19.290701 35,000 63 457 0
2019-04-17 19:29:07 GMT 54.338745 19.280037 35,000 63 457 0
2019-04-17 19:29:00 GMT 54.332199 19.257820 35,000 63 456 0
2019-04-17 19:28:57 GMT 54.329086 19.247158 35,000 63 456 0
2019-04-17 19:28:53 GMT 54.324646 19.232052 34,975 63 456 0
2019-04-17 19:28:50 GMT 54.322456 19.224577 35,000 63 456 0
2019-04-17 19:28:46 GMT 54.319061 19.213007 35,000 63 456 0
2019-04-17 19:28:42 GMT 54.314987 19.199175 34,975 63 455 0
2019-04-17 19:28:35 GMT 54.308353 19.176720 35,000 63 455 0
2019-04-17 19:28:29 GMT 54.302948 19.158461 35,000 63 454 0
2019-04-17 19:28:25 GMT 54.298622 19.143677 35,000 63 454 0
2019-04-17 19:28:22 GMT 54.295212 19.132126 35,000 63 454 0
2019-04-17 19:28:18 GMT 54.292572 19.123201 35,000 63 454 0
2019-04-17 19:28:15 GMT 54.289719 19.113544 35,000 63 454 0
2019-04-17 19:28:11 GMT 54.285553 19.099489 34,975 62 451 0
2019-04-17 19:28:08 GMT 54.283173 19.091492 35,000 63 453 0
2019-04-17 19:28:05 GMT 54.280060 19.080990 35,000 63 452 0
2019-04-17 19:28:00 GMT 54.275436 19.065281 35,000 63 453 0
2019-04-17 19:27:56 GMT 54.270691 19.049324 35,000 63 453 0
2019-04-17 19:27:50 GMT 54.265778 19.032715 34,975 62 451 0
2019-04-17 19:27:47 GMT 54.263523 19.025089 35,000 63 453 0
2019-04-17 19:27:44 GMT 54.259148 19.010387 34,975 63 453 64
2019-04-17 19:27:40 GMT 54.256123 19.000208 34,975 63 453 0
2019-04-17 19:27:33 GMT 54.250351 18.980844 34,975 63 452 0
2019-04-17 19:27:30 GMT 54.246113 18.966522 35,000 63 452 0
2019-04-17 19:27:23 GMT 54.240097 18.946238 35,000 62 451 0
2019-04-17 19:27:20 GMT 54.237362 18.937037 35,000 62 451 0
2019-04-17 19:27:17 GMT 54.234798 18.928474 34,975 62 451 0
2019-04-17 19:27:13 GMT 54.225632 18.897739 34,975 62 456 0
2019-04-17 19:27:07 GMT 54.225632 18.897739 34,975 63 452 0
2019-04-17 19:27:04 GMT 54.215607 18.864153 34,975 63 452 0
2019-04-17 19:26:58 GMT 54.215607 18.864153 35,000 63 452 0
2019-04-17 19:26:55 GMT 54.213226 18.856228 34,975 63 452 0
2019-04-17 19:26:49 GMT 54.203384 18.823191 34,975 62 453 0
2019-04-17 19:26:44 GMT 54.203384 18.823191 34,975 62 453 0
2019-04-17 19:26:40 GMT 54.199585 18.810476 34,975 62 453 0
2019-04-17 19:26:35 GMT 54.195282 18.796194 35,000 62 453 0
2019-04-17 19:26:31 GMT 54.189789 18.777754 35,000 62 453 0
2019-04-17 19:26:28 GMT 54.184067 18.758606 35,000 62 454 0
2019-04-17 19:26:24 GMT 54.184067 18.758606 35,000 62 454 0
2019-04-17 19:26:21 GMT 54.182144 18.752251 35,000 62 455 0
2019-04-17 19:26:15 GMT 54.176285 18.732821 35,000 62 455 0
2019-04-17 19:26:11 GMT 54.172165 18.719133 35,000 62 455 0
2019-04-17 19:26:05 GMT 54.166138 18.699055 35,000 62 455 0
2019-04-17 19:26:02 GMT 54.163651 18.690805 35,000 62 455 0
2019-04-17 19:25:55 GMT 54.156601 18.667576 35,000 62 456 0
2019-04-17 19:25:51 GMT 54.152405 18.653494 34,975 62 456 64
2019-04-17 19:25:45 GMT 54.146629 18.634348 34,975 62 456 0
2019-04-17 19:25:41 GMT 54.143326 18.623474 34,975 62 456 0
2019-04-17 19:25:38 GMT 54.133408 18.590645 34,975 62 459 0
2019-04-17 19:25:32 GMT 54.131561 18.584551 35,000 62 457 0
2019-04-17 19:25:24 GMT 54.126705 18.568590 34,975 62 457 64
2019-04-17 19:25:19 GMT 54.114716 18.528913 34,975 62 459 0
2019-04-17 19:25:12 GMT 54.109955 18.513296 34,975 62 457 0
2019-04-17 19:25:02 GMT 54.105698 18.499172 34,975 62 458 0
2019-04-17 19:24:57 GMT 54.101009 18.483850 34,975 62 459 0
2019-04-17 19:24:50 GMT 54.093422 18.458889 34,975 62 459 0
2019-04-17 19:24:47 GMT 54.089905 18.447378 34,975 62 459 0
2019-04-17 19:24:42 GMT 54.085327 18.432312 34,975 62 459 -64
2019-04-17 19:24:38 GMT 54.081894 18.421089 35,000 62 459 -64
2019-04-17 19:24:32 GMT 54.076035 18.401863 35,000 62 459 -64
2019-04-17 19:24:28 GMT 54.071774 18.387800 35,000 62 460 0
2019-04-17 19:24:20 GMT 54.064316 18.363413 35,000 62 462 0
2019-04-17 19:24:16 GMT 54.055344 18.333984 35,000 62 465 0
2019-04-17 19:24:11 GMT 54.055344 18.333984 35,000 62 466 0
2019-04-17 19:24:07 GMT 54.050674 18.318760 35,000 62 466 0
2019-04-17 19:23:58 GMT 54.042755 18.292786 35,000 62 467 0
2019-04-17 19:23:55 GMT 54.039654 18.282623 34,975 62 467 0
2019-04-17 19:23:49 GMT 54.032501 18.259199 35,000 62 468 0
2019-04-17 19:23:46 GMT 54.029892 18.250725 35,000 62 468 0
2019-04-17 19:23:41 GMT 54.025780 18.237385 35,000 62 468 0
2019-04-17 19:23:38 GMT 54.022522 18.226641 35,000 62 468 0
2019-04-17 19:23:34 GMT 54.018936 18.214928 35,000 62 468 64
2019-04-17 19:23:31 GMT 54.015213 18.202810 35,000 62 468 0
2019-04-17 19:23:28 GMT 54.011814 18.191744 35,000 62 468 0
2019-04-17 19:23:24 GMT 54.008835 18.181969 35,000 62 469 0
2019-04-17 19:23:20 GMT 54.005219 18.170288 34,975 62 469 64
2019-04-17 19:23:16 GMT 53.997944 18.146505 34,975 62 469 0
2019-04-17 19:23:07 GMT 53.990913 18.123726 35,000 62 468 0
2019-04-17 19:23:03 GMT 53.987915 18.114021 35,000 62 468 0
2019-04-17 19:22:56 GMT 53.980408 18.089617 34,975 62 468 0
2019-04-17 19:22:53 GMT 53.977707 18.080828 34,975 62 468 64
2019-04-17 19:22:48 GMT 53.969452 18.054173 34,975 62 468 0
2019-04-17 19:22:45 GMT 53.969452 18.054173 34,975 62 468 0
2019-04-17 19:22:42 GMT 53.966858 18.045750 34,975 62 468 0
2019-04-17 19:22:39 GMT 53.962841 18.032764 35,000 62 468 0
2019-04-17 19:22:36 GMT 53.960327 18.024687 35,000 62 468 0
2019-04-17 19:22:32 GMT 53.955860 18.010389 35,000 62 467 0
2019-04-17 19:22:27 GMT 53.951344 17.995848 34,975 62 467 0
2019-04-17 19:22:22 GMT 53.946533 17.980225 34,975 62 467 0
2019-04-17 19:22:17 GMT 53.941101 17.962727 34,975 62 467 0
2019-04-17 19:22:11 GMT 53.930115 17.927425 35,000 62 467 -64
2019-04-17 19:22:07 GMT 53.930115 17.927425 35,000 62 467 -64
2019-04-17 19:22:02 GMT 53.926987 17.917446 35,000 62 467 0
2019-04-17 19:21:59 GMT 53.922043 17.901594 35,000 62 467 -64
2019-04-17 19:21:53 GMT 53.914719 17.877974 35,000 62 467 0
2019-04-17 19:21:46 GMT 53.909912 17.862434 34,975 62 467 0
2019-04-17 19:21:40 GMT 53.904236 17.844309 34,975 62 468 0
2019-04-17 19:21:35 GMT 53.899391 17.828791 35,000 62 467 -64
2019-04-17 19:21:30 GMT 53.893753 17.810720 34,975 62 468 0
2019-04-17 19:21:24 GMT 53.887711 17.791338 35,000 62 467 -64
2019-04-17 19:21:19 GMT 53.883636 17.778391 35,000 62 467 -64
2019-04-17 19:21:14 GMT 53.878071 17.760693 35,000 62 467 0
2019-04-17 19:21:09 GMT 53.872810 17.743889 35,000 61 467 0
2019-04-17 19:21:04 GMT 53.867432 17.726833 35,000 62 467 0
2019-04-17 19:20:58 GMT 53.862076 17.709726 35,000 61 467 0
2019-04-17 19:20:53 GMT 53.857121 17.693886 35,000 61 467 0
2019-04-17 19:20:48 GMT 53.851860 17.677164 35,000 61 467 0
2019-04-17 19:20:43 GMT 53.843853 17.651636 35,000 61 467 0
2019-04-17 19:20:37 GMT 53.840515 17.641062 35,000 61 467 0
2019-04-17 19:20:33 GMT 53.835754 17.625916 35,000 61 467 0
2019-04-17 19:20:28 GMT 53.830261 17.608494 35,000 61 467 0
2019-04-17 19:20:19 GMT 53.822254 17.583054 35,000 61 467 0
2019-04-17 19:20:16 GMT 53.819229 17.573418 35,000 61 467 0
2019-04-17 19:20:09 GMT 53.811905 17.550266 35,000 61 467 0
2019-04-17 19:20:06 GMT 53.809174 17.541613 35,000 61 467 64
2019-04-17 19:19:59 GMT 53.800781 17.514954 34,975 61 467 64
2019-04-17 19:19:56 GMT 53.798630 17.508205 35,000 61 467 0
2019-04-17 19:19:51 GMT 53.793251 17.491123 34,975 61 467 64
2019-04-17 19:19:48 GMT 53.790710 17.483093 34,975 61 467 64
2019-04-17 19:19:45 GMT 53.788177 17.475128 34,975 61 467 0
2019-04-17 19:19:41 GMT 53.783291 17.459700 34,975 61 466 0
2019-04-17 19:19:38 GMT 53.781143 17.452959 34,975 61 466 0
2019-04-17 19:19:35 GMT 53.777069 17.440168 34,975 61 466 0
2019-04-17 19:19:29 GMT 53.770908 17.420601 34,975 61 466 0
2019-04-17 19:19:25 GMT 53.766533 17.406868 34,975 61 466 0
2019-04-17 19:19:21 GMT 53.759689 17.385460 34,975 61 465 0
2019-04-17 19:19:17 GMT 53.759689 17.385460 34,975 61 466 0
2019-04-17 19:19:14 GMT 53.755730 17.373020 34,975 61 465 0
2019-04-17 19:19:08 GMT 53.749821 17.354441 34,975 61 465 0
2019-04-17 19:19:03 GMT 53.745441 17.340708 34,975 61 465 0
2019-04-17 19:18:58 GMT 53.739578 17.322222 34,975 61 464 0
2019-04-17 19:18:53 GMT 53.734680 17.306919 34,975 61 465 0
2019-04-17 19:18:47 GMT 53.723797 17.272850 34,975 61 465 0
2019-04-17 19:18:42 GMT 53.723797 17.272850 34,975 61 465 0
2019-04-17 19:18:37 GMT 53.718304 17.255644 34,975 61 465 0
2019-04-17 19:18:32 GMT 53.713623 17.240923 34,975 61 464 0
2019-04-17 19:18:26 GMT 53.707829 17.222847 34,975 61 464 0
2019-04-17 19:18:21 GMT 53.702866 17.207178 34,975 61 464 0
2019-04-17 19:18:14 GMT 53.695724 17.184971 34,975 61 464 0
2019-04-17 19:18:11 GMT 53.692047 17.173489 34,975 61 464 0
2019-04-17 19:18:06 GMT 53.686832 17.157251 34,975 61 464 0
2019-04-17 19:18:00 GMT 53.681526 17.140772 34,975 61 464 0
2019-04-17 19:17:56 GMT 53.676315 17.124546 34,975 61 465 0
2019-04-17 19:17:51 GMT 53.670586 17.106764 34,975 61 465 0
2019-04-17 19:17:48 GMT 53.668537 17.100382 34,975 61 465 0
2019-04-17 19:17:44 GMT 53.664551 17.087978 34,975 61 465 -64
2019-04-17 19:17:39 GMT 53.659927 17.073723 35,000 61 465 -64
2019-04-17 19:17:34 GMT 53.654526 17.056902 35,000 61 465 0
2019-04-17 19:17:30 GMT 53.649399 17.041052 35,000 61 465 0
2019-04-17 19:17:24 GMT 53.643772 17.023558 35,000 61 465 0
2019-04-17 19:17:20 GMT 53.639629 17.010876 35,000 61 465 0
2019-04-17 19:17:17 GMT 53.635849 16.999146 35,000 61 465 0
2019-04-17 19:17:13 GMT 53.632874 16.989885 35,000 61 465 0
2019-04-17 19:17:08 GMT 53.627247 16.972504 35,000 61 465 0
2019-04-17 19:17:03 GMT 53.622498 16.957882 35,000 61 465 64
2019-04-17 19:16:57 GMT 53.616867 16.940434 35,000 61 465 64
2019-04-17 19:16:52 GMT 53.611450 16.923574 34,975 61 465 0
2019-04-17 19:16:48 GMT 53.606689 16.908979 35,000 61 465 0
2019-04-17 19:16:44 GMT 53.601654 16.893440 35,000 61 465 0
2019-04-17 19:16:36 GMT 53.590164 16.857971 35,000 61 464 0
2019-04-17 19:16:31 GMT 53.590164 16.857971 35,000 61 464 0
2019-04-17 19:16:26 GMT 53.584278 16.839941 35,000 61 464 0
2019-04-17 19:16:23 GMT 53.580826 16.829170 35,000 61 464 0
2019-04-17 19:16:15 GMT 53.573620 16.807062 35,000 61 464 0
2019-04-17 19:16:12 GMT 53.565102 16.780807 34,975 61 464 0
2019-04-17 19:16:08 GMT 53.559311 16.763096 34,975 61 464 0
2019-04-17 19:16:02 GMT 53.559311 16.763096 34,975 61 464 0
2019-04-17 19:15:54 GMT 53.546757 16.724585 34,975 61 464 0
2019-04-17 19:15:50 GMT 53.546757 16.724585 34,975 61 464 0
2019-04-17 19:15:47 GMT 53.543884 16.715776 35,000 61 464 0
2019-04-17 19:15:43 GMT 53.540268 16.704712 35,000 61 464 0
2019-04-17 19:15:40 GMT 53.537384 16.695923 35,000 61 464 0
2019-04-17 19:15:37 GMT 53.533676 16.684624 34,975 61 463 0
2019-04-17 19:15:34 GMT 53.530701 16.675442 35,000 61 464 64
2019-04-17 19:15:30 GMT 53.526123 16.661631 34,975 61 464 64
2019-04-17 19:15:26 GMT 53.521591 16.647739 34,975 61 464 0
2019-04-17 19:15:23 GMT 53.519348 16.640835 34,975 61 464 0
2019-04-17 19:15:19 GMT 53.515640 16.629456 34,975 61 463 0
2019-04-17 19:15:13 GMT 53.509415 16.610622 34,975 61 463 0
2019-04-17 19:15:10 GMT 53.505001 16.597111 34,975 61 463 -64
2019-04-17 19:15:02 GMT 53.496414 16.570993 35,000 61 463 0
2019-04-17 19:14:59 GMT 53.494949 16.566599 35,000 61 463 0
2019-04-17 19:14:52 GMT 53.487488 16.543999 35,000 61 463 0
2019-04-17 19:14:49 GMT 53.484100 16.533615 35,000 61 463 0
2019-04-17 19:14:44 GMT 53.478931 16.517944 35,000 61 463 0
2019-04-17 19:14:41 GMT 53.474670 16.504761 34,975 61 463 0
2019-04-17 19:14:31 GMT 53.465664 16.477797 35,000 61 464 0
2019-04-17 19:14:28 GMT 53.462906 16.469292 35,000 61 464 0
2019-04-17 19:14:21 GMT 53.455517 16.447018 35,000 60 463 0
2019-04-17 19:14:18 GMT 53.452103 16.436724 35,000 60 463 0
2019-04-17 19:14:15 GMT 53.448486 16.425737 35,000 60 463 64
2019-04-17 19:14:11 GMT 53.444733 16.414436 35,000 60 463 -64
2019-04-17 19:14:08 GMT 53.440796 16.402510 35,000 61 462 0
2019-04-17 19:14:03 GMT 53.436382 16.389097 35,000 60 463 64
2019-04-17 19:14:00 GMT 53.434204 16.382500 35,000 61 462 64
2019-04-17 19:13:56 GMT 53.429958 16.369711 35,000 60 463 64
2019-04-17 19:13:52 GMT 53.420181 16.340305 34,975 60 463 0
2019-04-17 19:13:48 GMT 53.420181 16.340305 35,000 60 463 -64
2019-04-17 19:13:45 GMT 53.418228 16.334316 35,000 60 463 0
2019-04-17 19:13:38 GMT 53.408386 16.304653 34,975 60 462 64
2019-04-17 19:13:35 GMT 53.406921 16.300259 34,975 60 462 64
2019-04-17 19:13:29 GMT 53.401611 16.284407 35,000 60 462 0
2019-04-17 19:13:26 GMT 53.394951 16.264370 34,975 60 462 0
2019-04-17 19:13:23 GMT 53.394951 16.264370 34,975 60 462 -64
2019-04-17 19:13:19 GMT 53.390808 16.251930 35,000 60 462 0
2019-04-17 19:13:14 GMT 53.385269 16.235359 35,000 60 462 -64
2019-04-17 19:13:08 GMT 53.379356 16.217598 35,000 60 462 0
2019-04-17 19:13:05 GMT 53.375118 16.204754 35,000 60 463 0
2019-04-17 19:12:58 GMT 53.365158 16.174784 35,000 60 462 0
2019-04-17 19:12:54 GMT 53.365158 16.174784 35,000 60 462 0
2019-04-17 19:12:51 GMT 53.361107 16.162666 35,000 60 462 0
2019-04-17 19:12:48 GMT 53.358501 16.154831 35,000 60 462 0
2019-04-17 19:12:45 GMT 53.354599 16.143311 35,000 60 462 0
2019-04-17 19:12:39 GMT 53.349380 16.127773 34,975 60 462 0
2019-04-17 19:12:36 GMT 53.346268 16.118042 34,975 60 463 0
2019-04-17 19:12:33 GMT 53.343044 16.108704 34,975 60 463 0
2019-04-17 19:12:29 GMT 53.338017 16.093760 34,975 60 463 0
2019-04-17 19:12:24 GMT 53.333405 16.080061 34,975 60 463 0
2019-04-17 19:12:18 GMT 53.327637 16.062901 34,975 60 464 0
2019-04-17 19:12:15 GMT 53.324707 16.054165 34,975 60 464 0
2019-04-17 19:12:12 GMT 53.321136 16.043570 34,975 60 464 0
2019-04-17 19:12:07 GMT 53.316559 16.029861 34,975 60 464 0
2019-04-17 19:12:02 GMT 53.310699 16.012417 34,975 60 464 0
2019-04-17 19:11:57 GMT 53.306084 15.998679 34,975 60 464 0
2019-04-17 19:11:53 GMT 53.301224 15.984323 35,000 60 464 0
2019-04-17 19:11:50 GMT 53.294724 15.965018 35,000 60 465 0
2019-04-17 19:11:47 GMT 53.294724 15.965018 35,000 60 464 0
2019-04-17 19:11:44 GMT 53.292114 15.957249 35,000 60 464 0
2019-04-17 19:11:40 GMT 53.286530 15.940691 35,000 60 464 0
2019-04-17 19:11:35 GMT 53.281597 15.926056 35,000 60 464 0
2019-04-17 19:11:32 GMT 53.278336 15.916364 35,000 60 464 0
2019-04-17 19:11:29 GMT 53.276321 15.910400 35,000 60 464 0
2019-04-17 19:11:26 GMT 53.272751 15.899806 35,000 60 465 0
2019-04-17 19:11:22 GMT 53.268703 15.888008 35,000 60 465 0
2019-04-17 19:11:18 GMT 53.264790 15.876456 35,000 60 465 0
2019-04-17 19:11:15 GMT 53.260555 15.863935 34,975 60 465 0
2019-04-17 19:11:12 GMT 53.257713 15.855533 35,000 60 466 0
2019-04-17 19:11:08 GMT 53.254395 15.845816 35,000 60 466 0
2019-04-17 19:11:04 GMT 53.248264 15.827744 35,000 60 466 0
2019-04-17 19:11:01 GMT 53.245472 15.819666 35,000 60 466 0
2019-04-17 19:10:58 GMT 53.242821 15.811830 34,975 60 468 64
2019-04-17 19:10:54 GMT 53.238163 15.798097 35,000 60 467 0
2019-04-17 19:10:51 GMT 53.235855 15.791199 34,975 60 467 0
2019-04-17 19:10:47 GMT 53.231598 15.778629 35,000 60 467 0
2019-04-17 19:10:41 GMT 53.225143 15.759574 35,000 60 467 0
2019-04-17 19:10:38 GMT 53.222076 15.750471 35,000 60 468 64
2019-04-17 19:10:35 GMT 53.218052 15.738561 35,000 60 467 0
2019-04-17 19:10:31 GMT 53.214203 15.727321 35,000 60 468 64
2019-04-17 19:10:28 GMT 53.210403 15.716021 34,975 60 468 64
2019-04-17 19:10:22 GMT 53.202133 15.691546 34,975 60 468 0
2019-04-17 19:10:16 GMT 53.197403 15.677804 34,975 60 469 0
2019-04-17 19:10:13 GMT 53.195160 15.671212 34,975 60 468 0
2019-04-17 19:10:10 GMT 53.191864 15.661560 35,000 60 469 0
2019-04-17 19:10:07 GMT 53.187698 15.649318 35,000 60 469 0
2019-04-17 19:10:00 GMT 53.178249 15.621751 34,975 60 469 0
2019-04-17 19:09:57 GMT 53.178249 15.621751 34,975 60 469 0
2019-04-17 19:09:54 GMT 53.175365 15.613269 34,975 60 469 0
2019-04-17 19:09:51 GMT 53.172478 15.604867 34,975 60 469 0
2019-04-17 19:09:48 GMT 53.169250 15.595485 34,975 60 469 0
2019-04-17 19:09:45 GMT 53.165821 15.585480 34,975 60 469 0
2019-04-17 19:09:42 GMT 53.162567 15.576024 34,975 60 469 0
2019-04-17 19:09:38 GMT 53.157627 15.561649 34,975 60 469 0
2019-04-17 19:09:35 GMT 53.154968 15.553816 35,000 60 469 0
2019-04-17 19:09:31 GMT 53.150024 15.539455 35,000 60 471 0
2019-04-17 19:09:28 GMT 53.146912 15.530352 35,000 60 469 0
2019-04-17 19:09:25 GMT 53.142822 15.518431 35,000 60 469 0
2019-04-17 19:09:20 GMT 53.138809 15.506810 35,000 60 471 0
2019-04-17 19:09:17 GMT 53.135925 15.498413 35,000 60 469 0
2019-04-17 19:09:14 GMT 53.132072 15.487087 35,000 60 471 0
2019-04-17 19:09:11 GMT 53.128830 15.477696 35,000 60 471 0
2019-04-17 19:09:07 GMT 53.124622 15.465438 34,975 60 471 64
2019-04-17 19:09:04 GMT 53.120636 15.453840 35,000 60 471 64
2019-04-17 19:09:01 GMT 53.117172 15.443869 35,000 60 471 64
2019-04-17 19:08:58 GMT 53.113403 15.432887 34,975 60 471 64
2019-04-17 19:08:55 GMT 53.112213 15.429435 34,975 60 471 64
2019-04-17 19:08:52 GMT 53.105301 15.409345 35,000 60 471 0
2019-04-17 19:08:46 GMT 53.101639 15.398673 35,000 60 471 0
2019-04-17 19:08:43 GMT 53.097946 15.387968 34,975 60 471 0
2019-04-17 19:08:40 GMT 53.095230 15.380153 35,000 60 471 0
2019-04-17 19:08:33 GMT 53.087448 15.357590 34,975 60 472 0
2019-04-17 19:08:30 GMT 53.083649 15.346603 34,975 60 473 -64
2019-04-17 19:08:26 GMT 53.080490 15.337448 35,000 60 472 -64
2019-04-17 19:08:22 GMT 53.074860 15.321141 35,000 60 473 0
2019-04-17 19:08:19 GMT 53.072670 15.314863 35,000 60 473 0
2019-04-17 19:08:15 GMT 53.067318 15.299482 35,000 60 473 64
2019-04-17 19:08:12 GMT 53.065063 15.292892 35,000 60 473 0
2019-04-17 19:08:09 GMT 53.060669 15.280304 35,000 60 473 64
2019-04-17 19:08:02 GMT 53.054352 15.262070 34,975 60 473 64
2019-04-17 19:07:59 GMT 53.050781 15.251694 34,975 60 474 64
2019-04-17 19:07:56 GMT 53.047073 15.241013 34,975 60 473 0
2019-04-17 19:07:52 GMT 53.042496 15.227814 34,975 60 474 64
2019-04-17 19:07:49 GMT 53.038559 15.216446 34,975 60 474 0
2019-04-17 19:07:44 GMT 53.035057 15.206412 34,975 60 474 0
2019-04-17 19:07:41 GMT 53.026749 15.182495 34,975 60 474 0
2019-04-17 19:07:37 GMT 53.026749 15.182495 35,000 60 474 -64
2019-04-17 19:07:34 GMT 53.023590 15.173416 34,975 59 474 0
2019-04-17 19:07:31 GMT 53.017319 15.155483 34,975 60 474 0
2019-04-17 19:07:24 GMT 53.012833 15.142593 35,000 59 474 0
2019-04-17 19:07:21 GMT 53.008026 15.128784 35,000 59 474 0
2019-04-17 19:07:14 GMT 53.001537 15.110282 35,000 59 474 0
2019-04-17 19:07:10 GMT 52.997498 15.098648 35,000 59 474 0
2019-04-17 19:07:07 GMT 52.994183 15.089251 35,000 59 474 64
2019-04-17 19:07:04 GMT 52.989716 15.076294 34,975 59 475 0
2019-04-17 19:07:00 GMT 52.986740 15.067825 35,000 59 474 64
2019-04-17 19:06:57 GMT 52.982117 15.054626 35,000 59 474 0
2019-04-17 19:06:53 GMT 52.978821 15.045227 35,000 59 475 0
2019-04-17 19:06:46 GMT 52.970257 15.020665 35,000 59 475 64
2019-04-17 19:06:42 GMT 52.966064 15.008737 34,975 59 476 0
2019-04-17 19:06:39 GMT 52.962994 14.999869 34,975 59 476 64
2019-04-17 19:06:34 GMT 52.957947 14.985428 35,000 59 476 -64
2019-04-17 19:06:31 GMT 52.953403 14.972482 35,000 59 476 -64
2019-04-17 19:06:28 GMT 52.950191 14.963379 35,000 59 476 64
2019-04-17 19:06:24 GMT 52.946457 14.952698 34,975 59 476 64
2019-04-17 19:06:21 GMT 52.943348 14.943839 35,000 59 476 64
2019-04-17 19:06:18 GMT 52.940048 14.934387 35,000 59 476 64
2019-04-17 19:06:15 GMT 52.935715 14.922180 34,975 59 476 64
2019-04-17 19:06:12 GMT 52.932632 14.913330 34,975 59 476 64
2019-04-17 19:06:08 GMT 52.928543 14.901699 34,975 59 475 0
2019-04-17 19:06:03 GMT 52.922012 14.883194 34,975 59 475 64
2019-04-17 19:05:57 GMT 52.916069 14.866228 35,000 59 475 -64
2019-04-17 19:05:52 GMT 52.910294 14.849930 35,000 59 475 -64
2019-04-17 19:05:46 GMT 52.904343 14.833069 35,000 59 473 0
2019-04-17 19:05:42 GMT 52.900055 14.820792 35,000 59 474 0
2019-04-17 19:05:39 GMT 52.892326 14.798898 34,975 59 475 64
2019-04-17 19:05:35 GMT 52.892326 14.798898 34,975 59 474 0
2019-04-17 19:05:32 GMT 52.889114 14.789795 34,975 59 475 64
2019-04-17 19:05:28 GMT 52.885113 14.778573 34,975 59 475 0
2019-04-17 19:05:25 GMT 52.881153 14.767351 35,000 59 474 0
2019-04-17 19:05:21 GMT 52.874405 14.748306 34,975 59 474 0
2019-04-17 19:05:15 GMT 52.869324 14.733887 34,975 59 474 0
2019-04-17 19:05:10 GMT 52.864883 14.721451 34,975 59 473 0
2019-04-17 19:05:07 GMT 52.862137 14.713669 35,000 59 474 0
2019-04-17 19:05:04 GMT 52.857834 14.701512 34,975 59 473 0
2019-04-17 19:05:01 GMT 52.854618 14.692409 34,975 59 473 0
2019-04-17 19:04:57 GMT 52.850197 14.679932 34,975 59 473 64
2019-04-17 19:04:54 GMT 52.846985 14.670944 34,975 59 473 0
2019-04-17 19:04:49 GMT 52.840805 14.653473 34,975 59 473 0
2019-04-17 19:04:46 GMT 52.838512 14.646894 34,975 59 473 0
2019-04-17 19:04:43 GMT 52.833717 14.633554 34,975 59 473 0
2019-04-17 19:04:38 GMT 52.825562 14.610519 34,975 59 473 0
2019-04-17 19:04:34 GMT 52.825562 14.610519 35,000 59 473 0
2019-04-17 19:04:31 GMT 52.817799 14.588745 35,000 59 473 -64
2019-04-17 19:04:28 GMT 52.817799 14.588745 34,975 59 473 0
2019-04-17 19:04:25 GMT 52.814026 14.578247 34,975 59 473 0
2019-04-17 19:04:22 GMT 52.812351 14.573600 34,975 59 473 0
2019-04-17 19:04:17 GMT 52.803085 14.547468 34,975 59 473 -64
2019-04-17 19:04:14 GMT 52.803085 14.547468 34,975 59 473 -64
2019-04-17 19:04:11 GMT 52.799973 14.538803 34,975 59 473 0
2019-04-17 19:04:07 GMT 52.791550 14.515228 35,000 59 473 -64
2019-04-17 19:04:04 GMT 52.791550 14.515228 35,000 59 475 0
2019-04-17 19:04:01 GMT 52.788235 14.505877 35,000 59 475 0
2019-04-17 19:03:56 GMT 52.782372 14.489476 35,000 59 473 -64
2019-04-17 19:03:52 GMT 52.777481 14.475821 34,975 59 474 0
2019-04-17 19:03:47 GMT 52.771988 14.460597 35,000 59 473 0
2019-04-17 19:03:43 GMT 52.768219 14.450082 35,000 59 474 0
2019-04-17 19:03:39 GMT 52.764309 14.439174 35,000 59 474 0
2019-04-17 19:03:36 GMT 52.760864 14.429522 35,000 59 475 64
2019-04-17 19:03:33 GMT 52.756302 14.416809 35,000 59 475 0
2019-04-17 19:03:30 GMT 52.754745 14.412460 35,000 59 475 64
2019-04-17 19:03:26 GMT 52.748611 14.395294 35,000 59 475 64
2019-04-17 19:03:23 GMT 52.745453 14.386597 35,000 59 475 0
2019-04-17 19:03:20 GMT 52.743221 14.380397 35,000 59 475 64
2019-04-17 19:03:17 GMT 52.739868 14.371033 35,000 59 475 64
2019-04-17 19:03:13 GMT 52.734192 14.355164 35,000 59 475 64
2019-04-17 19:03:10 GMT 52.731861 14.348694 35,000 59 475 0
2019-04-17 19:03:05 GMT 52.725220 14.330292 34,975 59 475 0
2019-04-17 19:03:01 GMT 52.720779 14.317856 35,000 59 475 -64
2019-04-17 19:02:58 GMT 52.714962 14.301688 35,000 59 475 -64
2019-04-17 19:02:55 GMT 52.714962 14.301688 34,975 59 474 0
2019-04-17 19:02:52 GMT 52.711517 14.292114 35,000 59 474 64
2019-04-17 19:02:48 GMT 52.707138 14.280014 35,000 59 474 0
2019-04-17 19:02:42 GMT 52.700344 14.261039 35,000 59 474 -64
2019-04-17 19:02:38 GMT 52.695648 14.248047 35,000 59 474 0
2019-04-17 19:02:32 GMT 52.689034 14.229806 35,000 59 474 0
2019-04-17 19:02:27 GMT 52.683426 14.214325 35,000 59 474 64
2019-04-17 19:02:24 GMT 52.680840 14.207206 34,975 59 474 0
2019-04-17 19:02:21 GMT 52.677521 14.197922 34,975 59 473 0
2019-04-17 19:02:18 GMT 52.670563 14.178772 35,000 59 474 0
2019-04-17 19:02:12 GMT 52.666176 14.166713 34,975 58 471 0
2019-04-17 19:02:08 GMT 52.661133 14.152832 34,975 59 474 0
2019-04-17 19:02:05 GMT 52.657799 14.143563 34,975 59 474 0
2019-04-17 19:02:01 GMT 52.654633 14.134903 34,975 59 474 0
2019-04-17 19:01:58 GMT 52.650253 14.122846 34,975 59 473 0
2019-04-17 19:01:54 GMT 52.645660 14.110260 34,975 59 473 0
2019-04-17 19:01:51 GMT 52.643318 14.103777 34,975 59 473 0
2019-04-17 19:01:48 GMT 52.638523 14.090515 34,975 59 473 0
2019-04-17 19:01:45 GMT 52.636242 14.084316 34,975 59 473 -64
2019-04-17 19:01:42 GMT 52.632248 14.073257 34,975 59 473 0
2019-04-17 19:01:36 GMT 52.626526 14.057541 34,975 59 472 0
2019-04-17 19:01:32 GMT 52.621952 14.044922 34,975 59 473 0
2019-04-17 19:01:29 GMT 52.618366 14.035034 34,975 59 473 64
2019-04-17 19:01:25 GMT 52.612640 14.019339 34,975 58 472 64
2019-04-17 19:01:22 GMT 52.609383 14.010472 34,975 59 472 -64
2019-04-17 19:01:19 GMT 52.607849 14.006119 34,975 59 473 -64
2019-04-17 19:01:16 GMT 52.603317 13.993835 34,975 58 475 0
2019-04-17 19:01:13 GMT 52.597366 13.977585 35,000 58 472 64
2019-04-17 19:01:10 GMT 52.597366 13.977585 35,000 59 472 0
2019-04-17 19:01:07 GMT 52.593227 13.966213 34,975 58 472 0
2019-04-17 19:01:04 GMT 52.589970 13.957267 35,000 58 472 64
2019-04-17 19:01:01 GMT 52.586479 13.947771 34,975 58 472 64
2019-04-17 19:00:58 GMT 52.583687 13.940081 35,000 59 472 -64
2019-04-17 19:00:55 GMT 52.579056 13.927536 35,000 58 472 0
2019-04-17 19:00:48 GMT 52.572647 13.909988 34,975 58 472 64
2019-04-17 19:00:44 GMT 52.567612 13.896179 34,975 58 473 0
2019-04-17 19:00:38 GMT 52.560379 13.876495 34,975 58 472 0
2019-04-17 19:00:35 GMT 52.557129 13.867645 34,975 58 472 -64
2019-04-17 19:00:32 GMT 52.554886 13.861465 34,975 58 472 -64
2019-04-17 19:00:29 GMT 52.550354 13.849182 35,000 58 472 -64
2019-04-17 19:00:26 GMT 52.543930 13.831709 35,000 58 472 0
2019-04-17 19:00:22 GMT 52.543930 13.831709 35,000 58 472 0
2019-04-17 19:00:19 GMT 52.538544 13.816986 35,000 58 473 0
2019-04-17 19:00:16 GMT 52.536255 13.810883 34,975 58 474 0
2019-04-17 19:00:13 GMT 52.531769 13.798599 35,000 58 474 0
2019-04-17 19:00:09 GMT 52.528381 13.789411 35,000 58 474 0
2019-04-17 19:00:06 GMT 52.525913 13.782663 35,000 58 474 0
2019-04-17 19:00:03 GMT 52.521957 13.771912 35,000 58 474 0
2019-04-17 19:00:00 GMT 52.517532 13.759918 35,000 58 474 0
2019-04-17 18:59:57 GMT 52.514282 13.750992 35,000 58 474 0
2019-04-17 18:59:54 GMT 52.508038 13.734087 35,000 58 474 64
2019-04-17 18:59:51 GMT 52.508038 13.734087 35,000 58 474 0
2019-04-17 18:59:48 GMT 52.503288 13.721218 35,000 58 474 0
2019-04-17 18:59:45 GMT 52.496540 13.702776 35,000 58 474 0
2019-04-17 18:59:41 GMT 52.496540 13.702776 35,000 58 474 0
2019-04-17 18:59:38 GMT 52.493793 13.695400 35,000 58 474 64
2019-04-17 18:59:35 GMT 52.490433 13.686142 35,000 58 475 0
2019-04-17 18:59:32 GMT 52.487137 13.677292 34,975 58 475 0
2019-04-17 18:59:29 GMT 52.483971 13.668640 34,975 58 475 0
2019-04-17 18:59:26 GMT 52.479767 13.657303 34,975 58 474 64
2019-04-17 18:59:22 GMT 52.476013 13.647156 34,975 58 475 0
2019-04-17 18:59:19 GMT 52.471821 13.635760 34,975 58 475 -64
2019-04-17 18:59:15 GMT 52.467911 13.625336 34,975 58 475 -64
2019-04-17 18:59:12 GMT 52.464046 13.614886 35,000 58 474 0
2019-04-17 18:59:08 GMT 52.458618 13.600159 34,975 58 475 0
2019-04-17 18:59:01 GMT 52.452129 13.582711 35,000 58 475 0
2019-04-17 18:58:58 GMT 52.447334 13.569763 35,000 58 475 0
2019-04-17 18:58:55 GMT 52.445053 13.563642 35,000 58 475 0
2019-04-17 18:58:51 GMT 52.439934 13.549831 35,000 58 475 0
2019-04-17 18:58:48 GMT 52.436161 13.539708 35,000 58 475 0
2019-04-17 18:58:44 GMT 52.428528 13.519148 35,000 58 475 0
2019-04-17 18:58:41 GMT 52.428528 13.519148 35,000 58 475 0
2019-04-17 18:58:38 GMT 52.424652 13.508759 35,000 58 475 0
2019-04-17 18:58:35 GMT 52.421219 13.499529 35,000 58 475 0
2019-04-17 18:58:32 GMT 52.418243 13.491592 35,000 58 475 0
2019-04-17 18:58:28 GMT 52.413208 13.478088 35,000 58 475 0
2019-04-17 18:58:25 GMT 52.410000 13.469474 35,000 58 475 0
2019-04-17 18:58:22 GMT 52.405994 13.458801 35,000 58 475 -64
2019-04-17 18:58:19 GMT 52.402458 13.449306 35,000 58 475 0
2019-04-17 18:58:16 GMT 52.398422 13.438568 35,000 58 475 0
2019-04-17 18:58:13 GMT 52.395569 13.430865 35,000 58 476 0
2019-04-17 18:58:10 GMT 52.392494 13.422625 35,000 58 475 0
2019-04-17 18:58:07 GMT 52.389267 13.414078 35,000 58 476 0
2019-04-17 18:58:03 GMT 52.384350 13.400888 35,000 58 476 64
2019-04-17 18:57:59 GMT 52.381165 13.392258 35,000 58 476 0
2019-04-17 18:57:56 GMT 52.377972 13.383702 35,000 58 476 64
2019-04-17 18:57:53 GMT 52.372620 13.369263 34,975 58 475 0
2019-04-17 18:57:49 GMT 52.368942 13.359451 34,975 58 474 0
2019-04-17 18:57:45 GMT 52.363449 13.344803 35,000 58 475 0
2019-04-17 18:57:38 GMT 52.355530 13.323669 35,000 58 474 0
2019-04-17 18:57:35 GMT 52.351868 13.313904 34,975 58 475 0
2019-04-17 18:57:32 GMT 52.345245 13.296125 34,975 58 475 0
2019-04-17 18:57:29 GMT 52.345245 13.296125 35,000 58 474 0
2019-04-17 18:57:25 GMT 52.341892 13.287336 35,000 58 474 0
2019-04-17 18:57:22 GMT 52.333748 13.265677 34,975 58 475 0
2019-04-17 18:57:18 GMT 52.333748 13.265677 35,000 58 473 0
2019-04-17 18:57:15 GMT 52.326859 13.247393 34,975 58 474 0
2019-04-17 18:57:09 GMT 52.323074 13.237305 35,000 58 474 -64
2019-04-17 18:57:06 GMT 52.319965 13.229109 35,000 58 474 -64
2019-04-17 18:57:03 GMT 52.315979 13.218460 35,000 58 474 0
2019-04-17 18:57:00 GMT 52.313461 13.211746 34,975 58 473 0
2019-04-17 18:56:57 GMT 52.309772 13.202035 35,000 58 473 0
2019-04-17 18:56:53 GMT 52.305676 13.191049 34,975 58 473 0
2019-04-17 18:56:50 GMT 52.302017 13.181305 34,975 58 473 0
2019-04-17 18:56:47 GMT 52.298367 13.171587 34,975 58 473 0
2019-04-17 18:56:44 GMT 52.293686 13.159103 34,975 58 474 0
2019-04-17 18:56:41 GMT 52.291077 13.152161 35,000 58 474 0
2019-04-17 18:56:36 GMT 52.285446 13.137283 35,000 58 473 0
2019-04-17 18:56:33 GMT 52.281097 13.125759 34,975 58 473 0
2019-04-17 18:56:30 GMT 52.278816 13.119638 35,000 58 473 0
2019-04-17 18:56:26 GMT 52.273415 13.105434 35,000 58 473 0
2019-04-17 18:56:20 GMT 52.266804 13.087856 35,000 58 473 0
2019-04-17 18:56:16 GMT 52.263336 13.078766 35,000 58 473 0
2019-04-17 18:56:13 GMT 52.259811 13.069382 35,000 58 473 0
2019-04-17 18:56:10 GMT 52.255188 13.057251 35,000 58 473 0
2019-04-17 18:56:07 GMT 52.252441 13.050003 34,975 58 472 0
2019-04-17 18:56:04 GMT 52.249252 13.041478 34,975 58 472 0
2019-04-17 18:56:01 GMT 52.244339 13.028488 35,000 58 472 0
2019-04-17 18:55:58 GMT 52.240784 13.019113 35,000 58 472 -64
2019-04-17 18:55:55 GMT 52.238708 13.013687 35,000 58 472 0
2019-04-17 18:55:51 GMT 52.233891 13.000985 35,000 58 472 0
2019-04-17 18:55:48 GMT 52.230587 12.992275 35,000 58 472 0
2019-04-17 18:55:45 GMT 52.227840 12.984977 35,000 58 472 0
2019-04-17 18:55:42 GMT 52.223923 12.974777 35,000 58 471 0
2019-04-17 18:55:39 GMT 52.220032 12.964478 35,000 58 471 0
2019-04-17 18:55:35 GMT 52.216156 12.954293 35,000 58 471 0
2019-04-17 18:55:32 GMT 52.212013 12.943386 35,000 58 470 0
2019-04-17 18:55:28 GMT 52.207451 12.931379 35,000 58 470 0
2019-04-17 18:55:25 GMT 52.204704 12.924159 35,000 58 470 0
2019-04-17 18:55:22 GMT 52.196323 12.902187 35,000 58 470 0
2019-04-17 18:55:18 GMT 52.196323 12.902187 35,000 58 470 0
2019-04-17 18:55:15 GMT 52.192566 12.892303 35,000 58 470 0
2019-04-17 18:55:12 GMT 52.188538 12.881775 34,975 58 470 0
2019-04-17 18:55:08 GMT 52.183521 12.868522 34,975 58 470 0
2019-04-17 18:55:05 GMT 52.181240 12.862558 34,975 58 470 0
2019-04-17 18:55:02 GMT 52.177780 12.853546 34,975 58 469 0
2019-04-17 18:54:59 GMT 52.174351 12.844587 34,975 58 469 0
2019-04-17 18:54:53 GMT 52.168533 12.829285 34,975 58 469 0
2019-04-17 18:54:50 GMT 52.164047 12.817612 34,975 58 469 0
2019-04-17 18:54:47 GMT 52.160065 12.807159 34,975 58 468 0
2019-04-17 18:54:44 GMT 52.157181 12.799683 34,975 58 468 0
2019-04-17 18:54:41 GMT 52.154205 12.791901 34,975 58 468 0
2019-04-17 18:54:38 GMT 52.144745 12.767133 34,975 58 468 0
2019-04-17 18:54:34 GMT 52.144745 12.767133 34,975 58 468 0
2019-04-17 18:54:31 GMT 52.142651 12.761719 34,975 58 468 0
2019-04-17 18:54:28 GMT 52.135014 12.741786 35,000 58 468 -64
2019-04-17 18:54:25 GMT 52.135014 12.741786 35,000 58 468 0
2019-04-17 18:54:22 GMT 52.132130 12.734331 35,000 58 468 0
2019-04-17 18:54:19 GMT 52.128845 12.725677 35,000 58 468 0
2019-04-17 18:54:16 GMT 52.125183 12.716141 35,000 58 468 0
2019-04-17 18:54:13 GMT 52.121750 12.707179 34,975 58 468 0
2019-04-17 18:54:10 GMT 52.118534 12.698783 35,000 58 468 0
2019-04-17 18:54:07 GMT 52.115799 12.691650 34,975 58 468 0
2019-04-17 18:54:04 GMT 52.111038 12.679138 34,975 58 467 0
2019-04-17 18:54:00 GMT 52.106918 12.668457 34,975 58 468 0
2019-04-17 18:53:57 GMT 52.099823 12.649994 35,000 58 468 0
2019-04-17 18:53:54 GMT 52.099823 12.649994 35,000 58 468 0
2019-04-17 18:53:51 GMT 52.096981 12.642596 35,000 57 467 0
2019-04-17 18:53:48 GMT 52.092728 12.631607 35,000 57 467 0
2019-04-17 18:53:45 GMT 52.089981 12.624435 35,000 57 467 0
2019-04-17 18:53:42 GMT 52.086456 12.615280 35,000 57 467 0
2019-04-17 18:53:39 GMT 52.081852 12.603437 34,975 57 467 0
2019-04-17 18:53:34 GMT 52.077530 12.592163 34,975 57 465 0
2019-04-17 18:53:31 GMT 52.073181 12.580872 34,975 57 465 0
2019-04-17 18:53:28 GMT 52.069107 12.570267 34,975 57 465 0
2019-04-17 18:53:23 GMT 52.063843 12.556686 34,975 57 465 -64
2019-04-17 18:53:20 GMT 52.060776 12.548676 34,975 57 465 0
2019-04-17 18:53:17 GMT 52.057133 12.539246 34,975 57 465 0
2019-04-17 18:53:14 GMT 52.054504 12.532425 34,975 57 465 0
2019-04-17 18:53:11 GMT 52.051666 12.525101 34,975 57 464 0
2019-04-17 18:53:08 GMT 52.048141 12.515945 34,975 57 464 0
2019-04-17 18:53:04 GMT 52.042889 12.502441 34,975 57 464 0
2019-04-17 18:53:00 GMT 52.038437 12.490997 34,975 57 463 0
2019-04-17 18:52:57 GMT 52.035812 12.484235 35,000 57 463 0
2019-04-17 18:52:53 GMT 52.030701 12.471008 35,000 57 463 0
2019-04-17 18:52:50 GMT 52.027294 12.462184 35,000 57 462 0
2019-04-17 18:52:47 GMT 52.022732 12.450413 34,975 57 462 -64
2019-04-17 18:52:43 GMT 52.019100 12.441075 35,000 57 462 0
2019-04-17 18:52:40 GMT 52.015686 12.432251 34,975 57 462 0
2019-04-17 18:52:37 GMT 52.012527 12.424088 35,000 57 462 0
2019-04-17 18:52:33 GMT 52.007088 12.409999 35,000 57 461 0
2019-04-17 18:52:30 GMT 52.004807 12.404192 35,000 57 461 0
2019-04-17 18:52:27 GMT 51.996597 12.383118 35,000 57 461 -64
2019-04-17 18:52:24 GMT 51.996597 12.383118 34,975 57 460 0
2019-04-17 18:52:20 GMT 51.992294 12.371979 35,000 57 461 0
2019-04-17 18:52:16 GMT 51.984238 12.351303 35,000 57 461 64
2019-04-17 18:52:13 GMT 51.984238 12.351303 35,000 57 461 64
2019-04-17 18:52:10 GMT 51.981995 12.345428 34,975 57 460 0
2019-04-17 18:52:07 GMT 51.979156 12.338181 34,975 57 460 64
2019-04-17 18:52:04 GMT 51.973804 12.324541 34,975 57 460 0
2019-04-17 18:52:01 GMT 51.967892 12.309396 34,975 57 459 -64
2019-04-17 18:51:55 GMT 51.965191 12.302490 34,975 57 459 -64
2019-04-17 18:51:51 GMT 51.960297 12.289963 34,975 57 458 0
2019-04-17 18:51:48 GMT 51.956764 12.280988 34,975 57 458 0
2019-04-17 18:51:45 GMT 51.954067 12.274083 34,975 57 458 0
2019-04-17 18:51:42 GMT 51.946701 12.255249 34,975 57 458 0
2019-04-17 18:51:39 GMT 51.946701 12.255249 34,975 57 458 0
2019-04-17 18:51:36 GMT 51.942398 12.244186 34,975 57 458 0
2019-04-17 18:51:33 GMT 51.939560 12.236938 34,975 57 458 0
2019-04-17 18:51:30 GMT 51.935959 12.227705 34,975 57 459 0
2019-04-17 18:51:27 GMT 51.932186 12.218131 34,975 57 459 0
2019-04-17 18:51:24 GMT 51.929489 12.211227 34,975 57 459 0
2019-04-17 18:51:20 GMT 51.925507 12.201080 34,975 57 459 0
2019-04-17 18:51:17 GMT 51.922211 12.192688 34,975 57 459 0
2019-04-17 18:51:14 GMT 51.915665 12.175903 34,975 57 459 -64
2019-04-17 18:51:08 GMT 51.910213 12.161944 35,000 57 459 -64
2019-04-17 18:51:05 GMT 51.908157 12.156754 34,975 57 459 0
2019-04-17 18:51:02 GMT 51.904312 12.146912 34,975 57 459 0
2019-04-17 18:50:58 GMT 51.899094 12.133560 34,975 57 459 0
2019-04-17 18:50:54 GMT 51.895691 12.124904 35,000 57 459 -64
2019-04-17 18:50:51 GMT 51.892014 12.115631 35,000 57 460 -64
2019-04-17 18:50:48 GMT 51.888153 12.105746 35,000 57 460 -64
2019-04-17 18:50:45 GMT 51.885216 12.098236 35,000 57 460 -64
2019-04-17 18:50:42 GMT 51.881561 12.088969 35,000 57 460 0
2019-04-17 18:50:38 GMT 51.875290 12.073010 35,000 57 460 0
2019-04-17 18:50:34 GMT 51.872223 12.065215 35,000 57 460 0
2019-04-17 18:50:30 GMT 51.868317 12.055283 35,000 57 461 0
2019-04-17 18:50:26 GMT 51.862473 12.040496 35,000 57 462 0
2019-04-17 18:50:23 GMT 51.860550 12.035597 35,000 57 462 0
2019-04-17 18:50:20 GMT 51.856865 12.026291 35,000 57 462 0
2019-04-17 18:50:17 GMT 51.852165 12.014389 34,975 57 462 0
2019-04-17 18:50:11 GMT 51.847370 12.002182 34,975 57 462 0
2019-04-17 18:50:08 GMT 51.842758 11.990509 34,975 57 462 0
2019-04-17 18:50:05 GMT 51.839783 11.982956 34,975 57 462 0
2019-04-17 18:50:02 GMT 51.832890 11.965485 34,975 57 462 0
2019-04-17 18:49:56 GMT 51.828415 11.954164 34,975 57 463 0
2019-04-17 18:49:50 GMT 51.821068 11.935577 34,975 57 464 0
2019-04-17 18:49:47 GMT 51.818275 11.928558 34,975 57 464 0
2019-04-17 18:49:44 GMT 51.815990 11.922760 34,975 57 464 0
2019-04-17 18:49:41 GMT 51.811478 11.911407 34,975 57 464 0
2019-04-17 18:49:37 GMT 51.806076 11.897674 34,975 57 464 0
2019-04-17 18:49:34 GMT 51.803841 11.892166 34,975 57 464 0
2019-04-17 18:49:31 GMT 51.799232 11.880493 34,975 57 465 0
2019-04-17 18:49:28 GMT 51.796829 11.874365 34,975 57 465 0
2019-04-17 18:49:25 GMT 51.794037 11.867387 35,000 57 465 0
2019-04-17 18:49:22 GMT 51.789970 11.857147 34,975 57 465 0
2019-04-17 18:49:19 GMT 51.786526 11.848373 34,975 57 465 0
2019-04-17 18:49:15 GMT 51.781403 11.835542 34,975 57 465 0
2019-04-17 18:49:11 GMT 51.776779 11.823887 34,975 57 466 -64
2019-04-17 18:49:08 GMT 51.773987 11.816835 35,000 57 468 -64
2019-04-17 18:49:04 GMT 51.768997 11.804290 35,000 57 466 -64
2019-04-17 18:49:01 GMT 51.765018 11.794357 35,000 57 466 -64
2019-04-17 18:48:58 GMT 51.761993 11.786771 35,000 56 477 0
2019-04-17 18:48:55 GMT 51.757801 11.776276 35,000 57 466 0
2019-04-17 18:48:52 GMT 51.750366 11.757524 34,975 57 468 0
2019-04-17 18:48:49 GMT 51.750366 11.757524 35,000 57 469 0
2019-04-17 18:48:43 GMT 51.744781 11.743420 35,000 57 468 -64
2019-04-17 18:48:40 GMT 51.740437 11.732635 35,000 57 468 -64
2019-04-17 18:48:37 GMT 51.738575 11.727905 35,000 57 468 0
2019-04-17 18:48:34 GMT 51.733292 11.714766 35,000 57 469 0
2019-04-17 18:48:31 GMT 51.730362 11.707417 35,000 57 469 0
2019-04-17 18:48:28 GMT 51.726746 11.698287 35,000 57 469 0
2019-04-17 18:48:25 GMT 51.722900 11.688637 35,000 57 469 0
2019-04-17 18:48:22 GMT 51.720421 11.682434 35,000 57 469 0
2019-04-17 18:48:19 GMT 51.716557 11.672745 35,000 57 471 0
2019-04-17 18:48:16 GMT 51.713112 11.664276 35,000 57 471 0
2019-04-17 18:48:13 GMT 51.708527 11.652783 34,975 57 471 0
2019-04-17 18:48:08 GMT 51.703709 11.640701 34,975 57 471 0
2019-04-17 18:48:05 GMT 51.700542 11.632767 34,975 57 473 0
2019-04-17 18:48:02 GMT 51.696865 11.623611 34,975 57 472 0
2019-04-17 18:47:59 GMT 51.692394 11.612473 34,975 57 472 0
2019-04-17 18:47:56 GMT 51.686111 11.596832 35,000 57 473 0
2019-04-17 18:47:53 GMT 51.682480 11.587677 35,000 57 472 -64
2019-04-17 18:47:50 GMT 51.682480 11.587677 35,000 57 472 0
2019-04-17 18:47:47 GMT 51.677856 11.576175 35,000 57 473 0
2019-04-17 18:47:44 GMT 51.674194 11.567045 35,000 57 473 0
2019-04-17 18:47:41 GMT 51.671913 11.561432 35,000 57 473 0
2019-04-17 18:47:38 GMT 51.667786 11.551085 34,975 57 473 0
2019-04-17 18:47:35 GMT 51.663719 11.541061 35,000 57 475 0
2019-04-17 18:47:31 GMT 51.659206 11.529770 34,975 57 474 0
2019-04-17 18:47:28 GMT 51.656830 11.523895 35,000 57 474 0
2019-04-17 18:47:25 GMT 51.653275 11.515008 35,000 57 474 -64
2019-04-17 18:47:22 GMT 51.649242 11.504974 35,000 57 475 -64
2019-04-17 18:47:19 GMT 51.645676 11.496079 35,000 57 475 0
2019-04-17 18:47:16 GMT 51.638397 11.478041 35,000 57 475 0
2019-04-17 18:47:13 GMT 51.638397 11.478041 34,975 57 476 0
2019-04-17 18:47:10 GMT 51.634346 11.467896 35,000 57 476 0
2019-04-17 18:47:07 GMT 51.631134 11.459961 34,975 57 476 0
2019-04-17 18:47:04 GMT 51.628014 11.452179 34,975 57 476 64
2019-04-17 18:47:01 GMT 51.623840 11.441815 34,975 56 477 0
2019-04-17 18:46:58 GMT 51.620499 11.433501 34,975 56 477 0
2019-04-17 18:46:52 GMT 51.612213 11.413088 34,975 56 477 64
2019-04-17 18:46:49 GMT 51.608734 11.404477 34,975 56 477 0
2019-04-17 18:46:46 GMT 51.605858 11.397324 34,975 57 477 -64
2019-04-17 18:46:43 GMT 51.602970 11.390228 35,000 56 478 0
2019-04-17 18:46:40 GMT 51.599010 11.380386 35,000 57 477 0
2019-04-17 18:46:37 GMT 51.592392 11.364095 35,000 57 477 0
2019-04-17 18:46:34 GMT 51.592392 11.364095 35,000 57 477 0
2019-04-17 18:46:30 GMT 51.579647 11.332550 34,975 56 478 0
2019-04-17 18:46:25 GMT 51.579647 11.332550 34,975 56 478 0
2019-04-17 18:46:22 GMT 51.577148 11.326310 35,000 56 478 0
2019-04-17 18:46:19 GMT 51.570007 11.308792 34,975 56 479 0
2019-04-17 18:46:16 GMT 51.570007 11.308792 35,000 56 479 64
2019-04-17 18:46:13 GMT 51.567123 11.301651 35,000 56 478 64
2019-04-17 18:46:09 GMT 51.562283 11.289749 34,975 56 479 64
2019-04-17 18:46:06 GMT 51.557209 11.277313 34,975 56 479 -64
2019-04-17 18:46:03 GMT 51.554184 11.269836 35,000 56 479 -64
2019-04-17 18:46:00 GMT 51.550552 11.260912 35,000 56 479 0
2019-04-17 18:45:57 GMT 51.546844 11.251707 35,000 56 479 -64
2019-04-17 18:45:53 GMT 51.542126 11.240082 35,000 56 479 0
2019-04-17 18:45:49 GMT 51.537285 11.228256 35,000 56 479 0
2019-04-17 18:45:46 GMT 51.533157 11.218080 35,000 56 479 0
2019-04-17 18:45:43 GMT 51.525055 11.198186 35,000 56 480 0
2019-04-17 18:45:40 GMT 51.525055 11.198186 35,000 56 480 0
2019-04-17 18:45:36 GMT 51.520294 11.186600 35,000 56 480 0
2019-04-17 18:45:32 GMT 51.516800 11.177979 35,000 56 480 0
2019-04-17 18:45:27 GMT 51.510223 11.161887 35,000 56 480 0
2019-04-17 18:45:24 GMT 51.506470 11.152682 35,000 56 480 0
2019-04-17 18:45:21 GMT 51.504044 11.146669 35,000 56 480 0
2019-04-17 18:45:18 GMT 51.499905 11.136551 35,000 56 480 0
2019-04-17 18:45:15 GMT 51.496170 11.127369 35,000 56 480 0
2019-04-17 18:45:12 GMT 51.491638 11.116382 35,000 56 480 -64
2019-04-17 18:45:09 GMT 51.488617 11.108885 35,000 56 480 0
2019-04-17 18:45:03 GMT 51.482162 11.093148 35,000 56 480 0
2019-04-17 18:45:00 GMT 51.478535 11.084213 35,000 56 480 0
2019-04-17 18:44:56 GMT 51.473042 11.070862 35,000 56 480 0
2019-04-17 18:44:53 GMT 51.466232 11.054176 35,000 56 480 0
2019-04-17 18:44:50 GMT 51.466232 11.054176 35,000 56 480 0
2019-04-17 18:44:46 GMT 51.460510 11.040221 35,000 56 480 0
2019-04-17 18:44:43 GMT 51.453552 11.023296 35,000 56 480 0
2019-04-17 18:44:40 GMT 51.453552 11.023296 35,000 56 480 0
2019-04-17 18:44:37 GMT 51.448788 11.011734 35,000 56 480 0
2019-04-17 18:44:34 GMT 51.446503 11.006074 35,000 56 480 0
2019-04-17 18:44:31 GMT 51.441711 10.994492 35,000 56 480 -64
2019-04-17 18:44:28 GMT 51.438904 10.987664 35,000 56 480 -64
2019-04-17 18:44:24 GMT 51.432728 10.972519 35,000 56 480 0
2019-04-17 18:44:21 GMT 51.430389 10.966879 34,975 56 480 0
2019-04-17 18:44:18 GMT 51.425743 10.955582 35,000 56 480 64
2019-04-17 18:44:14 GMT 51.421738 10.945797 35,000 56 480 64
2019-04-17 18:44:11 GMT 51.418579 10.938077 34,975 56 480 0
2019-04-17 18:44:08 GMT 51.413452 10.925606 35,000 56 480 0
2019-04-17 18:44:05 GMT 51.410660 10.918777 34,975 56 480 0
2019-04-17 18:44:01 GMT 51.404709 10.904228 34,975 56 481 0
2019-04-17 18:43:55 GMT 51.399582 10.891757 34,975 56 480 0
2019-04-17 18:43:52 GMT 51.394089 10.878372 35,000 56 480 0
2019-04-17 18:43:49 GMT 51.391525 10.872159 35,000 56 480 0
2019-04-17 18:43:46 GMT 51.385105 10.856476 34,975 56 480 0
2019-04-17 18:43:40 GMT 51.380951 10.846327 35,000 56 480 0
2019-04-17 18:43:37 GMT 51.376099 10.834450 35,000 56 480 0
2019-04-17 18:43:34 GMT 51.371929 10.824356 35,000 56 481 0
2019-04-17 18:43:31 GMT 51.370377 10.820494 34,975 56 481 0
2019-04-17 18:43:28 GMT 51.365971 10.809860 35,000 56 481 0
2019-04-17 18:43:25 GMT 51.358566 10.791766 35,000 56 481 -128
2019-04-17 18:43:22 GMT 51.358566 10.791766 35,000 56 481 -128
2019-04-17 18:43:19 GMT 51.354053 10.780792 35,000 56 480 0
2019-04-17 18:43:16 GMT 51.351585 10.774841 35,000 56 480 0
2019-04-17 18:43:13 GMT 51.347351 10.764449 35,000 56 480 192
2019-04-17 18:43:10 GMT 51.343674 10.755539 34,975 56 480 448
2019-04-17 18:43:07 GMT 51.339436 10.745163 34,950 56 480 576
2019-04-17 18:43:04 GMT 51.335621 10.736008 34,925 50 484 1792
2019-04-17 18:43:01 GMT 51.333801 10.731564 34,525 50 485 1280
2019-04-17 18:42:58 GMT 51.329384 10.720901 34,875 56 481 960
2019-04-17 18:42:55 GMT 51.325745 10.712041 34,850 56 480 1088
2019-04-17 18:42:52 GMT 51.321808 10.702614 34,800 56 480 1472
2019-04-17 18:42:49 GMT 51.317883 10.693130 34,650 56 480 1792
2019-04-17 18:42:46 GMT 51.314716 10.685501 34,525 56 481 1728
2019-04-17 18:42:43 GMT 51.310295 10.674820 34,475 56 481 1728
2019-04-17 18:42:39 GMT 51.305969 10.664533 34,375 56 480 1792
2019-04-17 18:42:35 GMT 51.301895 10.654808 34,200 56 481 1920
2019-04-17 18:42:32 GMT 51.297073 10.643311 34,125 56 483 2112
2019-04-17 18:42:28 GMT 51.291393 10.629730 34,025 56 483 1984
2019-04-17 18:42:25 GMT 51.288929 10.623779 33,900 56 483 2112
2019-04-17 18:42:22 GMT 51.285187 10.614871 33,825 56 484 2176
2019-04-17 18:42:17 GMT 51.277943 10.597305 33,575 56 485 1984
2019-04-17 18:42:14 GMT 51.275803 10.592305 33,500 55 485 1920
2019-04-17 18:42:11 GMT 51.271866 10.583174 33,350 54 485 1920
2019-04-17 18:42:08 GMT 51.262020 10.561905 33,250 52 485 1856
2019-04-17 18:42:04 GMT 51.262020 10.561905 33,050 51 484 1792
2019-04-17 18:42:01 GMT 51.257858 10.553482 32,950 50 484 1792
2019-04-17 18:41:57 GMT 51.250988 10.540390 32,950 49 484 1856
2019-04-17 18:41:51 GMT 51.243401 10.526810 32,725 46 483 1728
2019-04-17 18:41:48 GMT 51.232040 10.508200 32,650 45 482 1408
2019-04-17 18:41:45 GMT 51.229015 10.503464 32,575 44 483 1280
2019-04-17 18:41:39 GMT 51.225151 10.497665 32,500 43 481 1344
2019-04-17 18:41:35 GMT 51.217888 10.487213 32,375 40 480 1792
2019-04-17 18:41:32 GMT 51.211945 10.479250 32,250 36 479 1856
2019-04-17 18:41:29 GMT 51.208511 10.474796 32,200 36 480 2112
2019-04-17 18:41:26 GMT 51.202106 10.466766 32,025 36 479 1856
2019-04-17 18:41:23 GMT 51.191448 10.454102 31,925 36 478 1856
2019-04-17 18:41:20 GMT 51.191448 10.454102 31,900 36 478 1920
2019-04-17 18:41:17 GMT 51.186142 10.447769 31,675 36 479 2048
2019-04-17 18:41:14 GMT 51.179947 10.440426 31,650 36 480 2048
2019-04-17 18:41:11 GMT 51.175854 10.435562 31,500 36 480 2112
2019-04-17 18:41:08 GMT 51.170013 10.428624 31,450 36 480 2112
2019-04-17 18:41:05 GMT 51.164474 10.422091 31,350 36 480 2176
2019-04-17 18:41:02 GMT 51.159512 10.416183 31,225 36 481 2176
2019-04-17 18:40:59 GMT 51.154175 10.409769 31,175 36 482 2176
2019-04-17 18:40:56 GMT 51.147781 10.402145 31,000 36 482 2112
2019-04-17 18:40:52 GMT 51.140488 10.393363 30,850 37 482 2048
2019-04-17 18:40:49 GMT 51.137817 10.390167 30,700 36 484 2176
2019-04-17 18:40:46 GMT 51.130554 10.381486 29,825 36 485 1856
2019-04-17 18:40:43 GMT 51.126461 10.376511 30,525 37 483 2048
2019-04-17 18:40:40 GMT 51.120209 10.369089 30,450 36 483 2176
2019-04-17 18:40:36 GMT 51.112167 10.359573 30,275 36 484 2304
2019-04-17 18:40:33 GMT 51.107655 10.354309 30,175 36 484 2112
2019-04-17 18:40:30 GMT 51.097961 10.342886 29,950 36 484 1984
2019-04-17 18:40:24 GMT 51.085262 10.326996 29,675 38 486 1472
2019-04-17 18:40:21 GMT 51.085262 10.326996 29,825 39 485 1472
2019-04-17 18:40:18 GMT 51.082516 10.323334 29,725 41 485 1472
2019-04-17 18:40:15 GMT 51.074432 10.312079 29,650 44 486 1344
2019-04-17 18:40:12 GMT 51.063217 10.295080 29,500 45 486 1280
2019-04-17 18:40:08 GMT 51.063217 10.295080 29,500 45 486 1280
2019-04-17 18:40:04 GMT 51.052689 10.277561 28,500 50 485 1280
2019-04-17 18:40:00 GMT 51.052689 10.277561 29,350 48 486 1152
2019-04-17 18:39:56 GMT 51.046783 10.266798 29,175 50 485 1280
2019-04-17 18:39:52 GMT 51.039825 10.253362 29,175 52 485 1408
2019-04-17 18:39:49 GMT 51.035568 10.244677 29,075 58 485 1152
2019-04-17 18:39:46 GMT 51.032749 10.238647 28,875 58 486 1344
2019-04-17 18:39:43 GMT 51.025349 10.221710 28,725 57 486 1536
2019-04-17 18:39:37 GMT 51.020050 10.208526 28,750 58 486 1344
2019-04-17 18:39:33 GMT 51.016502 10.199432 28,725 58 486 1344
2019-04-17 18:39:30 GMT 51.012955 10.190413 28,625 58 485 1088
2019-04-17 18:39:27 GMT 51.010117 10.183138 28,575 58 483 1280
2019-04-17 18:39:23 GMT 51.001888 10.162125 28,450 58 482 1664
2019-04-17 18:39:20 GMT 51.001888 10.162125 28,400 58 482 1728
2019-04-17 18:39:17 GMT 50.993866 10.141717 28,150 58 481 1408
2019-04-17 18:39:13 GMT 50.989552 10.130615 28,025 58 479 1792
2019-04-17 18:39:10 GMT 50.989552 10.130615 28,125 58 481 1344
2019-04-17 18:39:07 GMT 50.982845 10.113602 28,025 58 479 1792
2019-04-17 18:39:01 GMT 50.978191 10.101700 25,725 58 479 1856
2019-04-17 18:38:58 GMT 50.975693 10.095471 27,675 58 478 2048
2019-04-17 18:38:54 GMT 50.970474 10.082035 27,675 58 478 1792
2019-04-17 18:38:48 GMT 50.964020 10.065704 27,500 58 479 1920
2019-04-17 18:38:45 GMT 50.960781 10.057373 27,175 58 478 1728
2019-04-17 18:38:42 GMT 50.956779 10.047302 25,850 58 473 1792
2019-04-17 18:38:38 GMT 50.949188 10.027994 27,100 58 477 1536
2019-04-17 18:38:35 GMT 50.949188 10.027994 27,125 58 477 1536
2019-04-17 18:38:32 GMT 50.943836 10.014420 27,000 58 476 1536
2019-04-17 18:38:28 GMT 50.940811 10.006714 26,975 57 475 1664
2019-04-17 18:38:25 GMT 50.935970 9.994354 26,525 57 464 1472
2019-04-17 18:38:21 GMT 50.931885 9.984048 26,750 58 473 1792
2019-04-17 18:38:18 GMT 50.927963 9.974060 26,350 57 470 1600
2019-04-17 18:38:15 GMT 50.924843 9.966125 26,525 58 473 1792
2019-04-17 18:38:11 GMT 50.920303 9.954653 26,475 57 473 1792
2019-04-17 18:38:08 GMT 50.916275 9.944409 26,200 58 472 1856
2019-04-17 18:38:02 GMT 50.910458 9.929810 26,075 57 471 1792
2019-04-17 18:37:59 GMT 50.907154 9.921341 26,050 57 471 1792
2019-04-17 18:37:55 GMT 50.901810 9.907886 25,875 57 470 1600
2019-04-17 18:37:51 GMT 50.898121 9.898605 25,775 57 469 1600
2019-04-17 18:37:48 GMT 50.888260 9.873591 25,225 57 467 1984
2019-04-17 18:37:43 GMT 50.888260 9.873591 25,625 57 468 1728
2019-04-17 18:37:39 GMT 50.883682 9.862011 25,100 57 467 1984
2019-04-17 18:37:36 GMT 50.880013 9.852753 25,375 57 467 1920
2019-04-17 18:37:33 GMT 50.877918 9.847565 25,300 57 467 1792
2019-04-17 18:37:29 GMT 50.871635 9.831696 25,125 57 466 1472
2019-04-17 18:37:26 GMT 50.868515 9.823914 25,025 57 465 1472
2019-04-17 18:37:23 GMT 50.865326 9.815839 25,025 57 464 1472
2019-04-17 18:37:19 GMT 50.861115 9.805224 24,800 57 464 1472
2019-04-17 18:37:16 GMT 50.857819 9.796910 24,900 57 458 1536
2019-04-17 18:37:13 GMT 50.854038 9.787521 24,775 57 461 1600
2019-04-17 18:37:10 GMT 50.850731 9.779205 24,650 57 461 1536
2019-04-17 18:37:07 GMT 50.847008 9.769821 24,600 57 460 1536
2019-04-17 18:37:04 GMT 50.842678 9.759064 24,375 57 459 1536
2019-04-17 18:37:01 GMT 50.839874 9.751925 24,450 57 458 1600
2019-04-17 18:36:58 GMT 50.837975 9.747162 24,400 57 458 1600
2019-04-17 18:36:55 GMT 50.833099 9.735000 24,275 57 456 1856
2019-04-17 18:36:52 GMT 50.830761 9.729080 24,150 57 449 1984
2019-04-17 18:36:48 GMT 50.826782 9.719189 23,750 57 452 1728
2019-04-17 18:36:45 GMT 50.822662 9.708796 23,950 57 455 1792
2019-04-17 18:36:41 GMT 50.817493 9.695892 23,850 57 454 1728
2019-04-17 18:36:38 GMT 50.814793 9.689178 23,800 57 453 1728
2019-04-17 18:36:35 GMT 50.811401 9.680811 23,700 57 452 1792
2019-04-17 18:36:28 GMT 50.804039 9.662399 23,500 57 451 1856
2019-04-17 18:36:25 GMT 50.799755 9.651871 23,425 57 451 1856
2019-04-17 18:36:21 GMT 50.795895 9.642105 23,150 57 444 1984
2019-04-17 18:36:17 GMT 50.787735 9.621945 23,075 57 449 1984
2019-04-17 18:36:14 GMT 50.787735 9.621945 22,925 57 449 1920
2019-04-17 18:36:11 GMT 50.783844 9.612221 22,950 57 449 1856
2019-04-17 18:36:07 GMT 50.780823 9.604797 22,550 57 445 1984
2019-04-17 18:36:04 GMT 50.776062 9.592972 22,700 57 446 1856
2019-04-17 18:35:58 GMT 50.769516 9.576738 22,500 57 446 1984
2019-04-17 18:35:55 GMT 50.763538 9.561996 22,325 57 445 2048
2019-04-17 18:35:52 GMT 50.763538 9.561996 22,300 57 444 2048
2019-04-17 18:35:49 GMT 50.760086 9.553503 22,175 57 441 2048
2019-04-17 18:35:45 GMT 50.755463 9.541997 22,075 57 444 1984
2019-04-17 18:35:42 GMT 50.752258 9.534129 22,000 57 443 1920
2019-04-17 18:35:39 GMT 50.749100 9.526186 21,950 57 443 1920
2019-04-17 18:35:35 GMT 50.744595 9.515076 21,700 57 441 1920
2019-04-17 18:35:32 GMT 50.741638 9.507702 21,575 57 440 2048
2019-04-17 18:35:29 GMT 50.737797 9.498215 21,525 57 441 2048
2019-04-17 18:35:24 GMT 50.732674 9.485474 21,400 57 440 2048
2019-04-17 18:35:21 GMT 50.728180 9.474446 21,300 57 439 2048
2019-04-17 18:35:18 GMT 50.726578 9.470363 20,825 57 438 1984
2019-04-17 18:35:14 GMT 50.722000 9.459006 20,925 57 438 1984
2019-04-17 18:35:11 GMT 50.719406 9.452515 20,975 57 438 1920
2019-04-17 18:35:08 GMT 50.715450 9.442520 20,825 58 436 1984
2019-04-17 18:35:04 GMT 50.710423 9.429932 20,700 58 436 1984
2019-04-17 18:34:58 GMT 50.703690 9.412982 20,075 57 434 2048
2019-04-17 18:34:54 GMT 50.699432 9.402218 20,100 57 434 2048
2019-04-17 18:34:50 GMT 50.696087 9.393997 20,250 57 434 2112
2019-04-17 18:34:46 GMT 50.692245 9.384403 20,150 57 433 2112
2019-04-17 18:34:42 GMT 50.684631 9.365158 19,900 60 432 1856
2019-04-17 18:34:39 GMT 50.684631 9.365158 19,875 60 432 1856
2019-04-17 18:34:36 GMT 50.682037 9.358050 19,800 61 431 1856
2019-04-17 18:34:30 GMT 50.673134 9.329681 19,500 66 430 1920
2019-04-17 18:34:27 GMT 50.673134 9.329681 19,475 67 430 1920
2019-04-17 18:34:24 GMT 50.671692 9.324201 19,400 68 429 1920
2019-04-17 18:34:21 GMT 50.669178 9.314328 19,300 70 429 1856
2019-04-17 18:34:17 GMT 50.666611 9.302818 19,200 72 428 1920
2019-04-17 18:34:14 GMT 50.664150 9.290648 19,125 72 428 1920
2019-04-17 18:34:10 GMT 50.661804 9.277448 19,025 74 427 2048
2019-04-17 18:34:06 GMT 50.660099 9.266597 18,425 77 426 2176
2019-04-17 18:34:03 GMT 50.659451 9.261772 18,325 83 421 1984
2019-04-17 18:34:00 GMT 50.658142 9.251428 18,325 82 426 2176
2019-04-17 18:33:57 GMT 50.656815 9.239213 18,525 80 426 2240
2019-04-17 18:33:53 GMT 50.656006 9.230000 18,250 83 425 1984
2019-04-17 18:33:49 GMT 50.655029 9.217023 18,200 83 425 1920
2019-04-17 18:33:46 GMT 50.654282 9.206023 16,675 83 412 2240
2019-04-17 18:33:42 GMT 50.652931 9.187020 17,975 83 422 1856
2019-04-17 18:33:39 GMT 50.652931 9.187020 17,950 83 423 1856
2019-04-17 18:33:36 GMT 50.652279 9.177518 17,800 83 421 1984
2019-04-17 18:33:33 GMT 50.651642 9.168380 17,675 83 421 1984
2019-04-17 18:33:30 GMT 50.651047 9.159562 17,575 83 419 2112
2019-04-17 18:33:27 GMT 50.650463 9.151092 17,450 83 419 2048
2019-04-17 18:33:24 GMT 50.649765 9.140773 17,150 83 418 2112
2019-04-17 18:33:21 GMT 50.649067 9.131420 17,325 83 415 1984
2019-04-17 18:33:17 GMT 50.648163 9.119014 17,150 83 417 1984
2019-04-17 18:33:13 GMT 50.647484 9.110041 16,975 83 414 2112
2019-04-17 18:33:06 GMT 50.645050 9.075863 16,725 83 412 2240
2019-04-17 18:33:03 GMT 50.644730 9.071093 16,675 83 412 2240
2019-04-17 18:33:00 GMT 50.643806 9.057708 16,575 83 412 2112
2019-04-17 18:32:56 GMT 50.643806 9.057708 16,350 83 411 2304
2019-04-17 18:32:53 GMT 50.643250 9.050285 16,275 83 411 2304
2019-04-17 18:32:50 GMT 50.641663 9.026859 16,125 83 409 1920
2019-04-17 18:32:46 GMT 50.641663 9.026859 16,075 83 409 1920
2019-04-17 18:32:43 GMT 50.641068 9.018547 15,975 83 408 1856
2019-04-17 18:32:40 GMT 50.640224 9.007082 15,875 83 406 1792
2019-04-17 18:32:35 GMT 50.639294 8.994759 15,750 82 405 1856
2019-04-17 18:32:32 GMT 50.638592 8.986297 15,650 77 401 2240
2019-04-17 18:32:29 GMT 50.637478 8.974717 15,025 353 395 2432
2019-04-17 18:32:24 GMT 50.636215 8.964121 15,375 77 401 2240
2019-04-17 18:32:21 GMT 50.635197 8.956678 15,300 76 401 2240
2019-04-17 18:32:18 GMT 50.633560 8.947136 15,075 71 399 2240
2019-04-17 18:32:15 GMT 50.631378 8.936339 14,950 70 399 2304
2019-04-17 18:32:11 GMT 50.628956 8.926020 14,850 67 398 2368
2019-04-17 18:32:08 GMT 50.627048 8.918820 14,750 64 397 2432
2019-04-17 18:32:03 GMT 50.623627 8.907599 14,575 62 397 2432
2019-04-17 18:32:00 GMT 50.621155 8.900227 14,450 60 397 2496
2019-04-17 18:31:57 GMT 50.617630 8.890758 14,250 52 396 2752
2019-04-17 18:31:54 GMT 50.614517 8.883241 13,875 50 396 2688
2019-04-17 18:31:51 GMT 50.610943 8.875320 13,675 47 396 2688
2019-04-17 18:31:47 GMT 50.605820 8.865099 13,575 47 396 2752
2019-04-17 18:31:43 GMT 50.602470 8.858989 13,675 47 396 2688
2019-04-17 18:31:39 GMT 50.598232 8.851863 13,400 38 396 1728
2019-04-17 18:31:36 GMT 50.592693 8.843400 13,325 41 396 2432
2019-04-17 18:31:32 GMT 50.588177 8.837165 13,250 40 396 2112
2019-04-17 18:31:29 GMT 50.583336 8.831004 13,000 30 393 320
2019-04-17 18:31:25 GMT 50.576771 8.823655 13,050 33 394 576
2019-04-17 18:31:22 GMT 50.573273 8.820070 13,025 31 394 384
2019-04-17 18:31:17 GMT 50.566223 8.813493 13,000 6 393 512
2019-04-17 18:31:12 GMT 50.557034 8.806655 13,000 23 393 128
2019-04-17 18:31:08 GMT 50.548462 8.801856 12,925 9 393 512
2019-04-17 18:31:05 GMT 50.544277 8.800049 12,950 12 393 512
2019-04-17 18:31:02 GMT 50.530426 8.796869 12,900 4 394 576
2019-04-17 18:30:58 GMT 50.530426 8.796869 12,875 1 394 768
2019-04-17 18:30:51 GMT 50.518433 8.797230 12,575 354 394 1408
2019-04-17 18:30:47 GMT 50.510620 8.798564 12,675 354 394 1536
2019-04-17 18:30:44 GMT 50.506664 8.799381 12,600 353 396 2112
2019-04-17 18:30:41 GMT 50.501404 8.800494 12,450 353 392 2560
2019-04-17 18:30:37 GMT 50.494492 8.802000 11,975 353 395 2496
2019-04-17 18:30:33 GMT 50.486847 8.803663 12,275 353 396 2496
2019-04-17 18:30:29 GMT 50.480129 8.805097 12,050 353 395 2432
2019-04-17 18:30:26 GMT 50.474350 8.806337 11,750 353 393 2560
2019-04-17 18:30:23 GMT 50.468956 8.807472 11,800 353 383 2304
2019-04-17 18:30:20 GMT 50.463696 8.808586 11,700 353 392 2560
2019-04-17 18:30:16 GMT 50.456715 8.810144 11,475 353 376 2496
2019-04-17 18:30:12 GMT 50.448807 8.811830 11,175 353 390 2432
2019-04-17 18:30:08 GMT 50.440018 8.813782 11,100 353 388 2304
2019-04-17 18:30:05 GMT 50.436264 8.814577 10,875 353 388 2304
2019-04-17 18:30:00 GMT 50.426083 8.816825 10,700 353 387 2560
2019-04-17 18:29:56 GMT 50.416306 8.818904 10,575 353 386 2624
2019-04-17 18:29:49 GMT 50.408340 8.820648 10,200 353 385 2432
2019-04-17 18:29:45 GMT 50.400925 8.822238 9,800 353 384 2368
2019-04-17 18:29:41 GMT 50.394745 8.823539 9,925 353 383 2304
2019-04-17 18:29:36 GMT 50.384949 8.825635 9,900 353 381 2240
2019-04-17 18:29:33 GMT 50.378815 8.826936 9,750 353 379 2240
2019-04-17 18:29:27 GMT 50.367737 8.829322 9,500 353 377 2368
2019-04-17 18:29:24 GMT 50.356705 8.831635 9,300 353 376 2496
2019-04-17 18:29:21 GMT 50.356705 8.831635 9,050 353 374 2624
2019-04-17 18:29:18 GMT 50.354095 8.832140 9,175 353 371 2752
2019-04-17 18:29:14 GMT 50.346725 8.833658 8,400 353 373 2688
2019-04-17 18:29:11 GMT 50.341415 8.834742 8,850 353 373 2688
2019-04-17 18:29:08 GMT 50.337170 8.835606 8,475 353 371 2752
2019-04-17 18:29:03 GMT 50.328461 8.837387 8,425 353 371 2816
2019-04-17 18:28:59 GMT 50.321667 8.838872 8,300 352 369 2880
2019-04-17 18:28:56 GMT 50.310352 8.841322 8,025 353 369 2816
2019-04-17 18:28:53 GMT 50.310352 8.841322 7,550 356 367 2816
2019-04-17 18:28:49 GMT 50.304108 8.842404 7,800 356 366 2816
2019-04-17 18:28:45 GMT 50.298843 8.842910 7,725 359 366 3072
2019-04-17 18:28:42 GMT 50.287216 8.842955 7,275 2 364 3392
2019-04-17 18:28:39 GMT 50.287216 8.842955 7,325 5 363 3008
2019-04-17 18:28:36 GMT 50.283508 8.842693 7,075 5 363 3008
2019-04-17 18:28:33 GMT 50.276962 8.841754 6,950 7 363 2624
2019-04-17 18:28:30 GMT 50.272507 8.840728 6,750 10 361 1984
2019-04-17 18:28:27 GMT 50.266270 8.838798 6,725 16 357 960
2019-04-17 18:28:23 GMT 50.261078 8.836766 6,650 16 357 960
2019-04-17 18:28:20 GMT 50.256073 8.834270 6,625 20 356 1088
2019-04-17 18:28:16 GMT 50.248810 8.830044 6,525 22 354 1216
2019-04-17 18:28:12 GMT 50.244576 8.827292 6,475 23 353 1152
2019-04-17 18:28:07 GMT 50.236633 8.822021 5,950 23 351 1216
2019-04-17 18:28:02 GMT 50.228806 8.816817 6,250 23 344 1536
2019-04-17 18:27:57 GMT 50.222279 8.812446 6,150 23 340 1536
2019-04-17 18:27:53 GMT 50.216675 8.808795 5,975 23 334 1600
2019-04-17 18:27:50 GMT 50.208172 8.803092 5,900 23 328 1408
2019-04-17 18:27:47 GMT 50.208172 8.803092 5,875 23 325 1408
2019-04-17 18:27:41 GMT 50.199699 8.797451 5,725 23 322 1472
2019-04-17 18:27:37 GMT 50.192917 8.792893 5,625 23 315 1536
2019-04-17 18:27:34 GMT 50.185364 8.787689 5,400 24 307 1408
2019-04-17 18:27:30 GMT 50.185364 8.787689 5,400 24 307 1408
2019-04-17 18:27:26 GMT 50.179260 8.783421 5,350 23 300 1216
2019-04-17 18:27:22 GMT 50.175167 8.780600 5,300 23 299 1152
2019-04-17 18:27:19 GMT 50.171535 8.778076 5,250 23 296 1024
2019-04-17 18:27:16 GMT 50.167786 8.775619 5,100 23 274 2240
2019-04-17 18:27:13 GMT 50.164227 8.773177 5,100 23 274 2240
2019-04-17 18:27:09 GMT 50.159386 8.769911 5,075 23 281 1344
2019-04-17 18:27:06 GMT 50.152222 8.765066 3,850 22 246 896
2019-04-17 18:26:59 GMT 50.147701 8.761968 4,725 23 268 3008
2019-04-17 18:26:56 GMT 50.137970 8.755435 4,025 22 266 0
2019-04-17 18:26:51 GMT 50.137970 8.755435 3,950 22 268 3072
2019-04-17 18:26:48 GMT 50.134186 8.752923 4,150 22 268 3136
2019-04-17 18:26:45 GMT 50.131779 8.751353 4,050 22 268 2624
2019-04-17 18:26:41 GMT 50.126541 8.747936 3,800 22 268 2624
2019-04-17 18:26:38 GMT 50.122879 8.745551 3,675 22 266 2368
2019-04-17 18:26:34 GMT 50.114464 8.739995 3,300 23 263 1600
2019-04-17 18:26:31 GMT 50.114464 8.739995 3,425 23 260 1408
2019-04-17 18:26:28 GMT 50.111111 8.737768 3,375 22 258 1088
2019-04-17 18:26:25 GMT 50.108597 8.736135 3,325 22 254 896
2019-04-17 18:26:22 GMT 50.100590 8.730865 3,250 22 249 896
2019-04-17 18:26:18 GMT 50.100590 8.730865 3,225 22 244 1024
2019-04-17 18:26:15 GMT 50.097015 8.728565 3,150 23 240 1024
2019-04-17 18:26:12 GMT 50.093674 8.726325 3,100 23 233 960
2019-04-17 18:26:09 GMT 50.089973 8.723813 3,050 23 231 1216
2019-04-17 18:26:06 GMT 50.087997 8.722494 3,000 24 229 1600
2019-04-17 18:26:03 GMT 50.086578 8.721437 2,975 27 226 1792
2019-04-17 18:26:00 GMT 50.083084 8.718765 2,650 61 213 2240
2019-04-17 18:25:55 GMT 50.078571 8.714311 2,625 44 218 2240
2019-04-17 18:25:51 GMT 50.075500 8.709918 2,400 51 216 2112
2019-04-17 18:25:48 GMT 50.073441 8.705942 2,375 57 215 2176
2019-04-17 18:25:45 GMT 50.071518 8.701244 2,275 63 213 2176
2019-04-17 18:25:40 GMT 50.069687 8.695100 2,125 69 211 1856
2019-04-17 18:25:36 GMT 50.068588 8.690402 2,050 70 210 1728
2019-04-17 18:25:32 GMT 50.066978 8.683356 1,900 70 206 1792
2019-04-17 18:25:28 GMT 50.066116 8.679705 1,825 70 206 1792
2019-04-17 18:25:24 GMT 50.064468 8.672550 1,675 70 199 1216
2019-04-17 18:25:19 GMT 50.063004 8.666334 1,550 71 193 1024
2019-04-17 18:25:16 GMT 50.062317 8.663226 1,550 71 193 1024
2019-04-17 18:25:13 GMT 50.061298 8.658489 1,500 71 191 960
2019-04-17 18:25:10 GMT 50.060322 8.653960 1,425 71 188 896
2019-04-17 18:25:07 GMT 50.059616 8.650794 1,400 71 187 768
2019-04-17 18:25:02 GMT 50.058319 8.644830 1,325 71 178 576
2019-04-17 18:24:58 GMT 50.057190 8.639735 1,175 70 174 1024
2019-04-17 18:24:52 GMT 50.055618 8.632507 1,225 70 171 576
2019-04-17 18:24:48 GMT 50.054501 8.627608 1,150 70 163 512
2019-04-17 18:24:41 GMT 50.052780 8.620036 1,125 70 161 832
2019-04-17 18:24:37 GMT 50.051708 8.615211 925 70 158 1472
2019-04-17 18:24:31 GMT 50.050278 8.609161 925 70 158 1472
2019-04-17 18:24:26 GMT 50.049088 8.603885 775 70 158 1408
2019-04-17 18:24:21 GMT 50.047146 8.595317 650 70 157 1728
2019-04-17 18:24:18 GMT 50.047146 8.595317 575 70 159 1920
2019-04-17 18:24:10 GMT 50.045059 8.586394 300 68 163 1024
2019-04-17 18:24:05 GMT 50.043640 8.580756 200 68 163 1024
2019-04-17 18:23:57 GMT 50.041561 8.572083 100 69 155 128
2019-04-17 18:22:14 GMT 50.034531 8.544020 0 340 10
2019-04-17 18:22:08 GMT 50.034298 8.544134 0 340 10
2019-04-17 18:21:59 GMT 50.033974 8.544320 0 340 10
2019-04-17 18:21:48 GMT 50.033569 8.544544 0 73 8
2019-04-17 18:21:34 GMT 50.033272 8.544707 0 73 4
2019-04-17 18:21:06 GMT 50.033134 8.544784 0 73 0
2019-04-17 18:20:48 GMT 50.033134 8.544779 0 73 0
2019-04-17 18:20:40 GMT 50.033134 8.544797 0 73 0
2019-04-17 18:16:58 GMT 50.030319 8.553784 0 250 22
2019-04-17 18:16:53 GMT 50.030502 8.554555 0 250 21
2019-04-17 18:16:38 GMT 50.030994 8.556597 0 250 22

Making use of Plane Finder data

You are free to use the raw flight data, aircraft information and images provided in this report for your own purposes provided the data is correctly attributed to Plane Finder. We ask that you please credit Plane Finder and link to planefinder.net in close proximity to the content.

Optionally one of the following logos (no smaller then 150x24px) can be used and must link to planefinder.net

Embedding the Plane Finder map

You are welcome to embed the Plane Finder playback map on your website to offer visitors a more interactive experience. We suggest using the following HTML code:

<iframe src="//planefinder.net/data/report/RU312-VQ-BVR-7700-squawk-2019-04-17/map" width="800" height="600" seamless="seamless"></iframe>

Where our data comes from

Plane Finder has a global network of data feeds and antenna radars that receive data broadcast directly from aircraft. The primary technologies used are ADS-B and MLAT. We also show feeds from the FAA and a FLARM glider feed.

Click here to find out more about the Plane Finder network.

How we collect our data